<?xml version="1.0" encoding="UTF-8" standalone="no" ?>
<gpx xmlns="http://www.topografix.com/GPX/1/1" xmlns:xsi="http://www.w3.org/2001/XMLSchema-instance" xsi:schemaLocation="http://www.topografix.com/GPX/1/1 http://www.topografix.com/GPX/1/1/gpx.xsd" version="1.1" creator="VisuGPX - https://www.visugpx.com">
  <metadata>
    <name>2020-10-24 15:24:36</name>
    <desc><![CDATA[Beaumont le Roger]]></desc>
  </metadata>
  <trk>
    <name><![CDATA[2020-10-24 15:24:36]]></name>
    <trkseg>
      <trkpt lat="49.08466" lon="0.76108">
        <ele>74.16</ele>
        <time>2020-10-16T17:17:40Z</time>
      </trkpt>
      <trkpt lat="49.08466" lon="0.76108">
        <ele>74.16</ele>
        <time>2020-10-16T17:17:41Z</time>
      </trkpt>
      <trkpt lat="49.0847" lon="0.76112">
        <ele>75.12</ele>
        <time>2020-10-16T17:18:11Z</time>
      </trkpt>
      <trkpt lat="49.08469" lon="0.76115">
        <ele>75.12</ele>
        <time>2020-10-16T17:18:55Z</time>
      </trkpt>
      <trkpt lat="49.08469" lon="0.76114">
        <ele>75.12</ele>
        <time>2020-10-16T17:19:31Z</time>
      </trkpt>
      <trkpt lat="49.08474" lon="0.76111">
        <ele>75.12</ele>
        <time>2020-10-16T17:20:22Z</time>
      </trkpt>
      <trkpt lat="49.08474" lon="0.76114">
        <ele>75.6</ele>
        <time>2020-10-16T17:21:02Z</time>
      </trkpt>
      <trkpt lat="49.08472" lon="0.76116">
        <ele>75.6</ele>
        <time>2020-10-16T17:21:36Z</time>
      </trkpt>
      <trkpt lat="49.08471" lon="0.76115">
        <ele>75.12</ele>
        <time>2020-10-16T17:21:54Z</time>
      </trkpt>
      <trkpt lat="49.08458" lon="0.76102">
        <ele>53.49</ele>
        <time>2020-10-17T08:04:13Z</time>
      </trkpt>
      <trkpt lat="49.08467" lon="0.76106">
        <ele>56.37</ele>
        <time>2020-10-17T08:04:36Z</time>
      </trkpt>
      <trkpt lat="49.08467" lon="0.76106">
        <ele>56.37</ele>
        <time>2020-10-17T08:04:37Z</time>
      </trkpt>
      <trkpt lat="49.08467" lon="0.76108">
        <ele>60.22</ele>
        <time>2020-10-17T08:04:41Z</time>
      </trkpt>
      <trkpt lat="49.08468" lon="0.76109">
        <ele>63.58</ele>
        <time>2020-10-17T08:04:45Z</time>
      </trkpt>
      <trkpt lat="49.08468" lon="0.7611">
        <ele>66.95</ele>
        <time>2020-10-17T08:04:50Z</time>
      </trkpt>
      <trkpt lat="49.08468" lon="0.76112">
        <ele>70.31</ele>
        <time>2020-10-17T08:04:55Z</time>
      </trkpt>
      <trkpt lat="49.08468" lon="0.76113">
        <ele>72.24</ele>
        <time>2020-10-17T08:04:59Z</time>
      </trkpt>
      <trkpt lat="49.08468" lon="0.76113">
        <ele>73.68</ele>
        <time>2020-10-17T08:05:02Z</time>
      </trkpt>
      <trkpt lat="49.08468" lon="0.76114">
        <ele>76.56</ele>
        <time>2020-10-17T08:05:10Z</time>
      </trkpt>
      <trkpt lat="49.08469" lon="0.76117">
        <ele>79.93</ele>
        <time>2020-10-17T08:05:21Z</time>
      </trkpt>
      <trkpt lat="49.08469" lon="0.76114">
        <ele>82.81</ele>
        <time>2020-10-17T08:05:36Z</time>
      </trkpt>
      <trkpt lat="49.0847" lon="0.76115">
        <ele>85.69</ele>
        <time>2020-10-17T08:05:58Z</time>
      </trkpt>
      <trkpt lat="49.08469" lon="0.76114">
        <ele>87.62</ele>
        <time>2020-10-17T08:06:05Z</time>
      </trkpt>
      <trkpt lat="49.08471" lon="0.76121">
        <ele>86.18</ele>
        <time>2020-10-17T08:06:25Z</time>
      </trkpt>
      <trkpt lat="49.08468" lon="0.76116">
        <ele>86.18</ele>
        <time>2020-10-17T08:06:46Z</time>
      </trkpt>
      <trkpt lat="49.08465" lon="0.76119">
        <ele>86.66</ele>
        <time>2020-10-17T08:07:25Z</time>
      </trkpt>
      <trkpt lat="49.08468" lon="0.76116">
        <ele>87.62</ele>
        <time>2020-10-17T08:07:53Z</time>
      </trkpt>
      <trkpt lat="49.0847" lon="0.76116">
        <ele>86.66</ele>
        <time>2020-10-17T08:08:04Z</time>
      </trkpt>
      <trkpt lat="49.0847" lon="0.76115">
        <ele>88.1</ele>
        <time>2020-10-17T08:08:07Z</time>
      </trkpt>
      <trkpt lat="49.0847" lon="0.76117">
        <ele>87.14</ele>
        <time>2020-10-17T08:08:10Z</time>
      </trkpt>
      <trkpt lat="49.08467" lon="0.76118">
        <ele>87.62</ele>
        <time>2020-10-17T08:08:37Z</time>
      </trkpt>
      <trkpt lat="49.08466" lon="0.76118">
        <ele>86.18</ele>
        <time>2020-10-17T08:08:58Z</time>
      </trkpt>
      <trkpt lat="49.08468" lon="0.76115">
        <ele>86.18</ele>
        <time>2020-10-17T08:09:18Z</time>
      </trkpt>
      <trkpt lat="49.08469" lon="0.76116">
        <ele>87.62</ele>
        <time>2020-10-17T08:09:42Z</time>
      </trkpt>
      <trkpt lat="49.08474" lon="0.76121">
        <ele>86.66</ele>
        <time>2020-10-17T08:10:18Z</time>
      </trkpt>
      <trkpt lat="49.08473" lon="0.76122">
        <ele>87.62</ele>
        <time>2020-10-17T08:10:31Z</time>
      </trkpt>
      <trkpt lat="49.08469" lon="0.76118">
        <ele>87.14</ele>
        <time>2020-10-17T08:11:08Z</time>
      </trkpt>
      <trkpt lat="49.08468" lon="0.76116">
        <ele>87.14</ele>
        <time>2020-10-17T08:11:50Z</time>
      </trkpt>
      <trkpt lat="49.08468" lon="0.76118">
        <ele>86.66</ele>
        <time>2020-10-17T08:12:10Z</time>
      </trkpt>
      <trkpt lat="49.08467" lon="0.76118">
        <ele>88.58</ele>
        <time>2020-10-17T08:12:12Z</time>
      </trkpt>
      <trkpt lat="49.08467" lon="0.76118">
        <ele>87.14</ele>
        <time>2020-10-17T08:12:14Z</time>
      </trkpt>
      <trkpt lat="49.08467" lon="0.76117">
        <ele>87.14</ele>
        <time>2020-10-17T08:12:49Z</time>
      </trkpt>
      <trkpt lat="49.08465" lon="0.76114">
        <ele>87.62</ele>
        <time>2020-10-17T08:13:32Z</time>
      </trkpt>
      <trkpt lat="49.08466" lon="0.76115">
        <ele>89.06</ele>
        <time>2020-10-17T08:13:59Z</time>
      </trkpt>
      <trkpt lat="49.08468" lon="0.76118">
        <ele>88.1</ele>
        <time>2020-10-17T08:14:28Z</time>
      </trkpt>
      <trkpt lat="49.08468" lon="0.76119">
        <ele>88.1</ele>
        <time>2020-10-17T08:14:57Z</time>
      </trkpt>
      <trkpt lat="49.08467" lon="0.76119">
        <ele>89.06</ele>
        <time>2020-10-17T08:15:27Z</time>
      </trkpt>
      <trkpt lat="49.08466" lon="0.76118">
        <ele>89.06</ele>
        <time>2020-10-17T08:15:56Z</time>
      </trkpt>
      <trkpt lat="49.08465" lon="0.76117">
        <ele>89.54</ele>
        <time>2020-10-17T08:16:10Z</time>
      </trkpt>
      <trkpt lat="49.08465" lon="0.76117">
        <ele>88.1</ele>
        <time>2020-10-17T08:16:13Z</time>
      </trkpt>
      <trkpt lat="49.08467" lon="0.76119">
        <ele>89.06</ele>
        <time>2020-10-17T08:16:44Z</time>
      </trkpt>
      <trkpt lat="49.08468" lon="0.76117">
        <ele>88.58</ele>
        <time>2020-10-17T08:17:10Z</time>
      </trkpt>
      <trkpt lat="49.08468" lon="0.76117">
        <ele>90.02</ele>
        <time>2020-10-17T08:17:16Z</time>
      </trkpt>
      <trkpt lat="49.08468" lon="0.76118">
        <ele>88.1</ele>
        <time>2020-10-17T08:17:19Z</time>
      </trkpt>
      <trkpt lat="49.08469" lon="0.76117">
        <ele>89.54</ele>
        <time>2020-10-17T08:17:26Z</time>
      </trkpt>
      <trkpt lat="49.08469" lon="0.76118">
        <ele>89.54</ele>
        <time>2020-10-17T08:18:02Z</time>
      </trkpt>
      <trkpt lat="49.08469" lon="0.7612">
        <ele>89.54</ele>
        <time>2020-10-17T08:18:36Z</time>
      </trkpt>
      <trkpt lat="49.08468" lon="0.76119">
        <ele>88.58</ele>
        <time>2020-10-17T08:19:17Z</time>
      </trkpt>
      <trkpt lat="49.08468" lon="0.76117">
        <ele>88.58</ele>
        <time>2020-10-17T08:20:01Z</time>
      </trkpt>
      <trkpt lat="49.08467" lon="0.76114">
        <ele>90.02</ele>
        <time>2020-10-17T08:20:35Z</time>
      </trkpt>
      <trkpt lat="49.08467" lon="0.76114">
        <ele>88.58</ele>
        <time>2020-10-17T08:20:39Z</time>
      </trkpt>
      <trkpt lat="49.08466" lon="0.76114">
        <ele>90.5</ele>
        <time>2020-10-17T08:20:42Z</time>
      </trkpt>
      <trkpt lat="49.08466" lon="0.76115">
        <ele>90.02</ele>
        <time>2020-10-17T08:20:55Z</time>
      </trkpt>
      <trkpt lat="49.08468" lon="0.76116">
        <ele>89.06</ele>
        <time>2020-10-17T08:21:06Z</time>
      </trkpt>
      <trkpt lat="49.08468" lon="0.76116">
        <ele>90.5</ele>
        <time>2020-10-17T08:21:35Z</time>
      </trkpt>
      <trkpt lat="49.08466" lon="0.76118">
        <ele>90.5</ele>
        <time>2020-10-17T08:22:14Z</time>
      </trkpt>
      <trkpt lat="49.08465" lon="0.76114">
        <ele>89.06</ele>
        <time>2020-10-17T08:22:54Z</time>
      </trkpt>
      <trkpt lat="49.08467" lon="0.76115">
        <ele>90.5</ele>
        <time>2020-10-17T08:23:06Z</time>
      </trkpt>
      <trkpt lat="49.08468" lon="0.76115">
        <ele>90.5</ele>
        <time>2020-10-17T08:23:31Z</time>
      </trkpt>
      <trkpt lat="49.08467" lon="0.76114">
        <ele>88.58</ele>
        <time>2020-10-17T08:24:01Z</time>
      </trkpt>
      <trkpt lat="49.08468" lon="0.76116">
        <ele>90.5</ele>
        <time>2020-10-17T08:24:45Z</time>
      </trkpt>
      <trkpt lat="49.08469" lon="0.76117">
        <ele>89.54</ele>
        <time>2020-10-17T08:24:55Z</time>
      </trkpt>
      <trkpt lat="49.08468" lon="0.76117">
        <ele>89.54</ele>
        <time>2020-10-17T08:25:16Z</time>
      </trkpt>
      <trkpt lat="49.08467" lon="0.76116">
        <ele>90.98</ele>
        <time>2020-10-17T08:25:34Z</time>
      </trkpt>
      <trkpt lat="49.08467" lon="0.76117">
        <ele>88.1</ele>
        <time>2020-10-17T08:25:53Z</time>
      </trkpt>
      <trkpt lat="49.08467" lon="0.76117">
        <ele>89.54</ele>
        <time>2020-10-17T08:25:55Z</time>
      </trkpt>
      <trkpt lat="49.0848" lon="0.7612">
        <ele>86.66</ele>
        <time>2020-10-17T08:30:44Z</time>
      </trkpt>
      <trkpt lat="49.08459" lon="0.76124">
        <ele>86.66</ele>
        <time>2020-10-17T08:31:14Z</time>
      </trkpt>
      <trkpt lat="49.08459" lon="0.76121">
        <ele>86.66</ele>
        <time>2020-10-17T08:31:41Z</time>
      </trkpt>
      <trkpt lat="49.08459" lon="0.76115">
        <ele>86.66</ele>
        <time>2020-10-17T08:32:13Z</time>
      </trkpt>
      <trkpt lat="49.08455" lon="0.76117">
        <ele>86.66</ele>
        <time>2020-10-17T08:32:46Z</time>
      </trkpt>
      <trkpt lat="49.08455" lon="0.76117">
        <ele>85.69</ele>
        <time>2020-10-17T08:33:08Z</time>
      </trkpt>
      <trkpt lat="49.08456" lon="0.76117">
        <ele>88.1</ele>
        <time>2020-10-17T08:33:10Z</time>
      </trkpt>
      <trkpt lat="49.08456" lon="0.76117">
        <ele>86.66</ele>
        <time>2020-10-17T08:33:14Z</time>
      </trkpt>
      <trkpt lat="49.08457" lon="0.76117">
        <ele>88.1</ele>
        <time>2020-10-17T08:33:26Z</time>
      </trkpt>
      <trkpt lat="49.08472" lon="0.76122">
        <ele>88.1</ele>
        <time>2020-10-17T08:34:12Z</time>
      </trkpt>
      <trkpt lat="49.08472" lon="0.76121">
        <ele>86.66</ele>
        <time>2020-10-17T08:34:17Z</time>
      </trkpt>
      <trkpt lat="49.08469" lon="0.76121">
        <ele>89.06</ele>
        <time>2020-10-17T08:34:41Z</time>
      </trkpt>
      <trkpt lat="49.08469" lon="0.7612">
        <ele>87.14</ele>
        <time>2020-10-17T08:34:43Z</time>
      </trkpt>
      <trkpt lat="49.08467" lon="0.76119">
        <ele>88.1</ele>
        <time>2020-10-17T08:34:53Z</time>
      </trkpt>
      <trkpt lat="49.0847" lon="0.76124">
        <ele>87.14</ele>
        <time>2020-10-17T08:35:23Z</time>
      </trkpt>
      <trkpt lat="49.08469" lon="0.7612">
        <ele>87.62</ele>
        <time>2020-10-17T08:35:53Z</time>
      </trkpt>
      <trkpt lat="49.08469" lon="0.7612">
        <ele>87.62</ele>
        <time>2020-10-17T08:36:04Z</time>
      </trkpt>
      <trkpt lat="49.08467" lon="0.76119">
        <ele>88.58</ele>
        <time>2020-10-17T08:36:27Z</time>
      </trkpt>
      <trkpt lat="49.08466" lon="0.76118">
        <ele>88.58</ele>
        <time>2020-10-17T08:37:01Z</time>
      </trkpt>
      <trkpt lat="49.08466" lon="0.76115">
        <ele>88.58</ele>
        <time>2020-10-17T08:37:32Z</time>
      </trkpt>
      <trkpt lat="49.08468" lon="0.76118">
        <ele>85.21</ele>
        <time>2020-10-17T08:37:43Z</time>
      </trkpt>
      <trkpt lat="49.08468" lon="0.76117">
        <ele>90.02</ele>
        <time>2020-10-17T08:37:44Z</time>
      </trkpt>
      <trkpt lat="49.08468" lon="0.76118">
        <ele>86.66</ele>
        <time>2020-10-17T08:37:51Z</time>
      </trkpt>
      <trkpt lat="49.08468" lon="0.76118">
        <ele>83.77</ele>
        <time>2020-10-17T08:37:55Z</time>
      </trkpt>
      <trkpt lat="49.08493" lon="0.76118">
        <ele>79.45</ele>
        <time>2020-10-17T13:47:21Z</time>
      </trkpt>
      <trkpt lat="49.08493" lon="0.76118">
        <ele>79.45</ele>
        <time>2020-10-17T13:47:22Z</time>
      </trkpt>
      <trkpt lat="49.08477" lon="0.76104">
        <ele>80.41</ele>
        <time>2020-10-17T13:47:35Z</time>
      </trkpt>
      <trkpt lat="49.08475" lon="0.76116">
        <ele>78</ele>
        <time>2020-10-17T13:48:03Z</time>
      </trkpt>
      <trkpt lat="49.08474" lon="0.76117">
        <ele>81.85</ele>
        <time>2020-10-17T13:48:06Z</time>
      </trkpt>
      <trkpt lat="49.08474" lon="0.76117">
        <ele>80.41</ele>
        <time>2020-10-17T13:48:07Z</time>
      </trkpt>
      <trkpt lat="49.08468" lon="0.7612">
        <ele>82.33</ele>
        <time>2020-10-17T13:48:36Z</time>
      </trkpt>
      <trkpt lat="49.08467" lon="0.76122">
        <ele>84.73</ele>
        <time>2020-10-17T13:48:45Z</time>
      </trkpt>
      <trkpt lat="49.08466" lon="0.76119">
        <ele>87.62</ele>
        <time>2020-10-17T13:48:57Z</time>
      </trkpt>
      <trkpt lat="49.08466" lon="0.76119">
        <ele>88.1</ele>
        <time>2020-10-17T13:48:58Z</time>
      </trkpt>
      <trkpt lat="49.08465" lon="0.76117">
        <ele>90.98</ele>
        <time>2020-10-17T13:49:11Z</time>
      </trkpt>
      <trkpt lat="49.08464" lon="0.76121">
        <ele>93.87</ele>
        <time>2020-10-17T13:49:46Z</time>
      </trkpt>
      <trkpt lat="49.08466" lon="0.76121">
        <ele>93.39</ele>
        <time>2020-10-17T13:50:15Z</time>
      </trkpt>
      <trkpt lat="49.08466" lon="0.76121">
        <ele>93.39</ele>
        <time>2020-10-17T13:50:52Z</time>
      </trkpt>
      <trkpt lat="49.08466" lon="0.76124">
        <ele>93.87</ele>
        <time>2020-10-17T13:51:29Z</time>
      </trkpt>
      <trkpt lat="49.08464" lon="0.76122">
        <ele>94.35</ele>
        <time>2020-10-17T13:52:01Z</time>
      </trkpt>
      <trkpt lat="49.08464" lon="0.76122">
        <ele>93.87</ele>
        <time>2020-10-17T13:52:34Z</time>
      </trkpt>
      <trkpt lat="49.08464" lon="0.76122">
        <ele>89.06</ele>
        <time>2020-10-17T13:52:37Z</time>
      </trkpt>
      <trkpt lat="49.08468" lon="0.7612">
        <ele>94.35</ele>
        <time>2020-10-17T13:53:45Z</time>
      </trkpt>
      <trkpt lat="49.08468" lon="0.7612">
        <ele>94.35</ele>
        <time>2020-10-17T13:53:46Z</time>
      </trkpt>
      <trkpt lat="49.08468" lon="0.76121">
        <ele>94.35</ele>
        <time>2020-10-17T13:54:19Z</time>
      </trkpt>
      <trkpt lat="49.08465" lon="0.76124">
        <ele>93.87</ele>
        <time>2020-10-17T13:55:07Z</time>
      </trkpt>
      <trkpt lat="49.08466" lon="0.76118">
        <ele>93.87</ele>
        <time>2020-10-17T13:55:48Z</time>
      </trkpt>
      <trkpt lat="49.08466" lon="0.76119">
        <ele>93.87</ele>
        <time>2020-10-17T13:56:22Z</time>
      </trkpt>
      <trkpt lat="49.08466" lon="0.7612">
        <ele>91.94</ele>
        <time>2020-10-17T13:56:56Z</time>
      </trkpt>
      <trkpt lat="49.08458" lon="0.76121">
        <ele>18.4</ele>
        <time>2020-10-18T07:40:03Z</time>
      </trkpt>
      <trkpt lat="49.08458" lon="0.76121">
        <ele>18.4</ele>
        <time>2020-10-18T07:40:04Z</time>
      </trkpt>
      <trkpt lat="49.08467" lon="0.76077">
        <ele>20.32</ele>
        <time>2020-10-18T07:40:30Z</time>
      </trkpt>
      <trkpt lat="49.08468" lon="0.76098">
        <ele>24.17</ele>
        <time>2020-10-18T07:40:43Z</time>
      </trkpt>
      <trkpt lat="49.08469" lon="0.761">
        <ele>28.98</ele>
        <time>2020-10-18T07:40:45Z</time>
      </trkpt>
      <trkpt lat="49.0847" lon="0.76102">
        <ele>33.78</ele>
        <time>2020-10-18T07:40:47Z</time>
      </trkpt>
      <trkpt lat="49.0847" lon="0.76103">
        <ele>37.63</ele>
        <time>2020-10-18T07:40:49Z</time>
      </trkpt>
      <trkpt lat="49.0847" lon="0.76104">
        <ele>41.47</ele>
        <time>2020-10-18T07:40:51Z</time>
      </trkpt>
      <trkpt lat="49.0847" lon="0.76105">
        <ele>45.8</ele>
        <time>2020-10-18T07:40:53Z</time>
      </trkpt>
      <trkpt lat="49.0847" lon="0.76106">
        <ele>45.8</ele>
        <time>2020-10-18T07:40:54Z</time>
      </trkpt>
      <trkpt lat="49.08469" lon="0.76106">
        <ele>49.65</ele>
        <time>2020-10-18T07:40:55Z</time>
      </trkpt>
      <trkpt lat="49.08469" lon="0.76106">
        <ele>51.09</ele>
        <time>2020-10-18T07:40:57Z</time>
      </trkpt>
      <trkpt lat="49.08469" lon="0.76107">
        <ele>55.41</ele>
        <time>2020-10-18T07:40:59Z</time>
      </trkpt>
      <trkpt lat="49.08469" lon="0.76108">
        <ele>55.41</ele>
        <time>2020-10-18T07:41:00Z</time>
      </trkpt>
      <trkpt lat="49.08469" lon="0.76108">
        <ele>60.22</ele>
        <time>2020-10-18T07:41:03Z</time>
      </trkpt>
      <trkpt lat="49.08469" lon="0.76109">
        <ele>61.18</ele>
        <time>2020-10-18T07:41:05Z</time>
      </trkpt>
      <trkpt lat="49.08469" lon="0.76109">
        <ele>64.07</ele>
        <time>2020-10-18T07:41:08Z</time>
      </trkpt>
      <trkpt lat="49.08469" lon="0.76111">
        <ele>67.91</ele>
        <time>2020-10-18T07:41:12Z</time>
      </trkpt>
      <trkpt lat="49.08468" lon="0.76112">
        <ele>70.79</ele>
        <time>2020-10-18T07:41:16Z</time>
      </trkpt>
      <trkpt lat="49.08468" lon="0.76112">
        <ele>72.72</ele>
        <time>2020-10-18T07:41:19Z</time>
      </trkpt>
      <trkpt lat="49.08468" lon="0.76111">
        <ele>75.6</ele>
        <time>2020-10-18T07:41:24Z</time>
      </trkpt>
      <trkpt lat="49.08469" lon="0.76111">
        <ele>78.97</ele>
        <time>2020-10-18T07:41:27Z</time>
      </trkpt>
      <trkpt lat="49.08469" lon="0.76111">
        <ele>81.85</ele>
        <time>2020-10-18T07:41:34Z</time>
      </trkpt>
      <trkpt lat="49.08468" lon="0.76111">
        <ele>85.21</ele>
        <time>2020-10-18T07:41:44Z</time>
      </trkpt>
      <trkpt lat="49.08469" lon="0.7611">
        <ele>88.1</ele>
        <time>2020-10-18T07:41:55Z</time>
      </trkpt>
      <trkpt lat="49.0847" lon="0.76109">
        <ele>90.98</ele>
        <time>2020-10-18T07:42:18Z</time>
      </trkpt>
      <trkpt lat="49.08468" lon="0.76111">
        <ele>19.84</ele>
        <time>2020-10-18T07:42:45Z</time>
      </trkpt>
      <trkpt lat="49.08468" lon="0.76111">
        <ele>93.39</ele>
        <time>2020-10-18T07:42:46Z</time>
      </trkpt>
      <trkpt lat="49.08466" lon="0.76114">
        <ele>93.87</ele>
        <time>2020-10-18T07:43:15Z</time>
      </trkpt>
      <trkpt lat="49.08468" lon="0.76112">
        <ele>94.35</ele>
        <time>2020-10-18T07:43:39Z</time>
      </trkpt>
      <trkpt lat="49.08466" lon="0.7611">
        <ele>93.39</ele>
        <time>2020-10-18T07:44:22Z</time>
      </trkpt>
      <trkpt lat="49.08464" lon="0.76113">
        <ele>93.39</ele>
        <time>2020-10-18T07:45:10Z</time>
      </trkpt>
      <trkpt lat="49.08465" lon="0.76112">
        <ele>95.31</ele>
        <time>2020-10-18T07:45:41Z</time>
      </trkpt>
      <trkpt lat="49.08469" lon="0.76109">
        <ele>94.35</ele>
        <time>2020-10-18T07:46:17Z</time>
      </trkpt>
      <trkpt lat="49.08464" lon="0.76112">
        <ele>93.87</ele>
        <time>2020-10-18T07:46:54Z</time>
      </trkpt>
      <trkpt lat="49.08462" lon="0.76111">
        <ele>93.87</ele>
        <time>2020-10-18T07:47:28Z</time>
      </trkpt>
      <trkpt lat="49.08464" lon="0.76111">
        <ele>93.87</ele>
        <time>2020-10-18T07:47:58Z</time>
      </trkpt>
      <trkpt lat="49.08467" lon="0.76112">
        <ele>94.83</ele>
        <time>2020-10-18T07:48:21Z</time>
      </trkpt>
      <trkpt lat="49.08469" lon="0.76105">
        <ele>94.83</ele>
        <time>2020-10-18T07:48:43Z</time>
      </trkpt>
      <trkpt lat="49.08468" lon="0.76113">
        <ele>94.83</ele>
        <time>2020-10-18T07:49:11Z</time>
      </trkpt>
      <trkpt lat="49.08468" lon="0.76116">
        <ele>94.83</ele>
        <time>2020-10-18T07:49:36Z</time>
      </trkpt>
      <trkpt lat="49.0847" lon="0.76115">
        <ele>94.83</ele>
        <time>2020-10-18T07:50:03Z</time>
      </trkpt>
      <trkpt lat="49.08469" lon="0.76112">
        <ele>94.35</ele>
        <time>2020-10-18T07:50:11Z</time>
      </trkpt>
      <trkpt lat="49.08469" lon="0.76109">
        <ele>94.83</ele>
        <time>2020-10-18T07:50:44Z</time>
      </trkpt>
      <trkpt lat="49.08469" lon="0.76111">
        <ele>94.83</ele>
        <time>2020-10-18T07:51:19Z</time>
      </trkpt>
      <trkpt lat="49.0847" lon="0.76112">
        <ele>94.83</ele>
        <time>2020-10-18T07:51:53Z</time>
      </trkpt>
      <trkpt lat="49.0847" lon="0.76113">
        <ele>93.39</ele>
        <time>2020-10-18T07:52:11Z</time>
      </trkpt>
      <trkpt lat="49.08471" lon="0.76112">
        <ele>93.39</ele>
        <time>2020-10-18T07:52:52Z</time>
      </trkpt>
      <trkpt lat="49.08471" lon="0.76111">
        <ele>93.39</ele>
        <time>2020-10-18T07:53:30Z</time>
      </trkpt>
      <trkpt lat="49.08468" lon="0.76112">
        <ele>93.39</ele>
        <time>2020-10-18T07:54:14Z</time>
      </trkpt>
      <trkpt lat="49.08469" lon="0.76115">
        <ele>92.9</ele>
        <time>2020-10-18T07:54:50Z</time>
      </trkpt>
      <trkpt lat="49.08469" lon="0.76116">
        <ele>94.35</ele>
        <time>2020-10-18T07:54:58Z</time>
      </trkpt>
      <trkpt lat="49.08467" lon="0.76113">
        <ele>94.35</ele>
        <time>2020-10-18T07:55:33Z</time>
      </trkpt>
      <trkpt lat="49.08469" lon="0.76113">
        <ele>89.54</ele>
        <time>2020-10-18T07:55:52Z</time>
      </trkpt>
      <trkpt lat="49.08459" lon="0.76132">
        <ele>88.1</ele>
        <time>2020-10-18T09:07:08Z</time>
      </trkpt>
      <trkpt lat="49.0846" lon="0.7613">
        <ele>88.1</ele>
        <time>2020-10-18T09:07:09Z</time>
      </trkpt>
      <trkpt lat="49.08461" lon="0.7612">
        <ele>88.1</ele>
        <time>2020-10-18T09:07:31Z</time>
      </trkpt>
      <trkpt lat="49.0846" lon="0.76123">
        <ele>88.1</ele>
        <time>2020-10-18T09:07:59Z</time>
      </trkpt>
      <trkpt lat="49.08461" lon="0.76124">
        <ele>88.58</ele>
        <time>2020-10-18T09:08:19Z</time>
      </trkpt>
      <trkpt lat="49.08464" lon="0.7612">
        <ele>89.06</ele>
        <time>2020-10-18T09:08:42Z</time>
      </trkpt>
      <trkpt lat="49.08462" lon="0.76122">
        <ele>89.06</ele>
        <time>2020-10-18T09:08:59Z</time>
      </trkpt>
      <trkpt lat="49.08462" lon="0.76122">
        <ele>89.06</ele>
        <time>2020-10-18T09:09:00Z</time>
      </trkpt>
      <trkpt lat="49.0846" lon="0.76127">
        <ele>88.58</ele>
        <time>2020-10-18T09:09:35Z</time>
      </trkpt>
      <trkpt lat="49.08462" lon="0.76134">
        <ele>90.02</ele>
        <time>2020-10-18T09:09:55Z</time>
      </trkpt>
      <trkpt lat="49.08462" lon="0.76135">
        <ele>86.66</ele>
        <time>2020-10-18T09:09:57Z</time>
      </trkpt>
      <trkpt lat="49.08463" lon="0.76135">
        <ele>90.02</ele>
        <time>2020-10-18T09:09:58Z</time>
      </trkpt>
      <trkpt lat="49.08463" lon="0.76132">
        <ele>89.06</ele>
        <time>2020-10-18T09:10:21Z</time>
      </trkpt>
      <trkpt lat="49.08462" lon="0.76124">
        <ele>88.1</ele>
        <time>2020-10-18T09:10:41Z</time>
      </trkpt>
      <trkpt lat="49.08461" lon="0.76122">
        <ele>90.02</ele>
        <time>2020-10-18T09:11:04Z</time>
      </trkpt>
      <trkpt lat="49.08461" lon="0.76122">
        <ele>90.02</ele>
        <time>2020-10-18T09:11:05Z</time>
      </trkpt>
      <trkpt lat="49.08463" lon="0.76129">
        <ele>89.54</ele>
        <time>2020-10-18T09:11:26Z</time>
      </trkpt>
      <trkpt lat="49.08461" lon="0.76118">
        <ele>88.58</ele>
        <time>2020-10-18T09:11:51Z</time>
      </trkpt>
      <trkpt lat="49.08462" lon="0.76119">
        <ele>90.02</ele>
        <time>2020-10-18T09:12:03Z</time>
      </trkpt>
      <trkpt lat="49.08463" lon="0.76119">
        <ele>88.58</ele>
        <time>2020-10-18T09:12:08Z</time>
      </trkpt>
      <trkpt lat="49.08465" lon="0.76121">
        <ele>88.58</ele>
        <time>2020-10-18T09:12:40Z</time>
      </trkpt>
      <trkpt lat="49.08462" lon="0.76123">
        <ele>89.06</ele>
        <time>2020-10-18T09:13:24Z</time>
      </trkpt>
      <trkpt lat="49.08463" lon="0.76127">
        <ele>90.02</ele>
        <time>2020-10-18T09:14:03Z</time>
      </trkpt>
      <trkpt lat="49.08466" lon="0.76127">
        <ele>90.02</ele>
        <time>2020-10-18T09:14:46Z</time>
      </trkpt>
      <trkpt lat="49.08466" lon="0.76124">
        <ele>90.98</ele>
        <time>2020-10-18T09:15:28Z</time>
      </trkpt>
      <trkpt lat="49.08467" lon="0.76125">
        <ele>89.06</ele>
        <time>2020-10-18T09:16:17Z</time>
      </trkpt>
      <trkpt lat="49.08468" lon="0.76125">
        <ele>91.46</ele>
        <time>2020-10-18T09:16:21Z</time>
      </trkpt>
      <trkpt lat="49.08469" lon="0.76126">
        <ele>84.25</ele>
        <time>2020-10-18T09:16:51Z</time>
      </trkpt>
      <trkpt lat="49.08463" lon="0.76119">
        <ele>90.5</ele>
        <time>2020-10-24T11:36:51Z</time>
      </trkpt>
      <trkpt lat="49.08463" lon="0.76122">
        <ele>89.06</ele>
        <time>2020-10-24T11:37:18Z</time>
      </trkpt>
      <trkpt lat="49.08464" lon="0.7612">
        <ele>85.21</ele>
        <time>2020-10-24T11:37:25Z</time>
      </trkpt>
      <trkpt lat="49.07989" lon="0.76193">
        <ele>97.71</ele>
        <time>2020-10-24T11:48:38Z</time>
      </trkpt>
      <trkpt lat="49.08" lon="0.76196">
        <ele>94.83</ele>
        <time>2020-10-24T11:48:41Z</time>
      </trkpt>
      <trkpt lat="49.08004" lon="0.76198">
        <ele>94.83</ele>
        <time>2020-10-24T11:48:42Z</time>
      </trkpt>
      <trkpt lat="49.08008" lon="0.76202">
        <ele>93.39</ele>
        <time>2020-10-24T11:48:43Z</time>
      </trkpt>
      <trkpt lat="49.08012" lon="0.76206">
        <ele>92.42</ele>
        <time>2020-10-24T11:48:44Z</time>
      </trkpt>
      <trkpt lat="49.08015" lon="0.76212">
        <ele>91.46</ele>
        <time>2020-10-24T11:48:45Z</time>
      </trkpt>
      <trkpt lat="49.08018" lon="0.76218">
        <ele>94.83</ele>
        <time>2020-10-24T11:48:46Z</time>
      </trkpt>
      <trkpt lat="49.08021" lon="0.76226">
        <ele>92.42</ele>
        <time>2020-10-24T11:48:47Z</time>
      </trkpt>
      <trkpt lat="49.08023" lon="0.76234">
        <ele>91.46</ele>
        <time>2020-10-24T11:48:48Z</time>
      </trkpt>
      <trkpt lat="49.08027" lon="0.76249">
        <ele>90.02</ele>
        <time>2020-10-24T11:48:50Z</time>
      </trkpt>
      <trkpt lat="49.0803" lon="0.76257">
        <ele>89.54</ele>
        <time>2020-10-24T11:48:51Z</time>
      </trkpt>
      <trkpt lat="49.08035" lon="0.76263">
        <ele>89.06</ele>
        <time>2020-10-24T11:48:52Z</time>
      </trkpt>
      <trkpt lat="49.0804" lon="0.76267">
        <ele>89.06</ele>
        <time>2020-10-24T11:48:53Z</time>
      </trkpt>
      <trkpt lat="49.08045" lon="0.76269">
        <ele>87.14</ele>
        <time>2020-10-24T11:48:54Z</time>
      </trkpt>
      <trkpt lat="49.08051" lon="0.76269">
        <ele>87.14</ele>
        <time>2020-10-24T11:48:55Z</time>
      </trkpt>
      <trkpt lat="49.08057" lon="0.76266">
        <ele>86.66</ele>
        <time>2020-10-24T11:48:56Z</time>
      </trkpt>
      <trkpt lat="49.08062" lon="0.76262">
        <ele>86.66</ele>
        <time>2020-10-24T11:48:57Z</time>
      </trkpt>
      <trkpt lat="49.08066" lon="0.76256">
        <ele>86.66</ele>
        <time>2020-10-24T11:48:58Z</time>
      </trkpt>
      <trkpt lat="49.0807" lon="0.76249">
        <ele>86.18</ele>
        <time>2020-10-24T11:48:59Z</time>
      </trkpt>
      <trkpt lat="49.08124" lon="0.76164">
        <ele>84.25</ele>
        <time>2020-10-24T11:49:14Z</time>
      </trkpt>
      <trkpt lat="49.08146" lon="0.76131">
        <ele>82.33</ele>
        <time>2020-10-24T11:49:19Z</time>
      </trkpt>
      <trkpt lat="49.0815" lon="0.76124">
        <ele>86.66</ele>
        <time>2020-10-24T11:49:20Z</time>
      </trkpt>
      <trkpt lat="49.08154" lon="0.76118">
        <ele>84.25</ele>
        <time>2020-10-24T11:49:21Z</time>
      </trkpt>
      <trkpt lat="49.08162" lon="0.76105">
        <ele>83.29</ele>
        <time>2020-10-24T11:49:23Z</time>
      </trkpt>
      <trkpt lat="49.08243" lon="0.75979">
        <ele>81.85</ele>
        <time>2020-10-24T11:49:42Z</time>
      </trkpt>
      <trkpt lat="49.08329" lon="0.75846">
        <ele>80.41</ele>
        <time>2020-10-24T11:49:59Z</time>
      </trkpt>
      <trkpt lat="49.08427" lon="0.75694">
        <ele>80.41</ele>
        <time>2020-10-24T11:50:18Z</time>
      </trkpt>
      <trkpt lat="49.08518" lon="0.75548">
        <ele>79.93</ele>
        <time>2020-10-24T11:50:38Z</time>
      </trkpt>
      <trkpt lat="49.08603" lon="0.75415">
        <ele>78.97</ele>
        <time>2020-10-24T11:50:56Z</time>
      </trkpt>
      <trkpt lat="49.08693" lon="0.75277">
        <ele>78</ele>
        <time>2020-10-24T11:51:14Z</time>
      </trkpt>
      <trkpt lat="49.08779" lon="0.75146">
        <ele>77.52</ele>
        <time>2020-10-24T11:51:30Z</time>
      </trkpt>
      <trkpt lat="49.08855" lon="0.75036">
        <ele>76.56</ele>
        <time>2020-10-24T11:51:46Z</time>
      </trkpt>
      <trkpt lat="49.08892" lon="0.74959">
        <ele>78</ele>
        <time>2020-10-24T11:51:56Z</time>
      </trkpt>
      <trkpt lat="49.08941" lon="0.74776">
        <ele>78.48</ele>
        <time>2020-10-24T11:52:17Z</time>
      </trkpt>
      <trkpt lat="49.08961" lon="0.74698">
        <ele>79.45</ele>
        <time>2020-10-24T11:52:27Z</time>
      </trkpt>
      <trkpt lat="49.08964" lon="0.74692">
        <ele>79.45</ele>
        <time>2020-10-24T11:52:28Z</time>
      </trkpt>
      <trkpt lat="49.08969" lon="0.74689">
        <ele>79.45</ele>
        <time>2020-10-24T11:52:29Z</time>
      </trkpt>
      <trkpt lat="49.08973" lon="0.74691">
        <ele>79.45</ele>
        <time>2020-10-24T11:52:30Z</time>
      </trkpt>
      <trkpt lat="49.08978" lon="0.74696">
        <ele>79.45</ele>
        <time>2020-10-24T11:52:31Z</time>
      </trkpt>
      <trkpt lat="49.08982" lon="0.74702">
        <ele>79.45</ele>
        <time>2020-10-24T11:52:32Z</time>
      </trkpt>
      <trkpt lat="49.09023" lon="0.7475">
        <ele>79.45</ele>
        <time>2020-10-24T11:52:41Z</time>
      </trkpt>
      <trkpt lat="49.09028" lon="0.74753">
        <ele>79.45</ele>
        <time>2020-10-24T11:52:42Z</time>
      </trkpt>
      <trkpt lat="49.09034" lon="0.74756">
        <ele>79.45</ele>
        <time>2020-10-24T11:52:43Z</time>
      </trkpt>
      <trkpt lat="49.09039" lon="0.74758">
        <ele>79.45</ele>
        <time>2020-10-24T11:52:44Z</time>
      </trkpt>
      <trkpt lat="49.09044" lon="0.74759">
        <ele>79.45</ele>
        <time>2020-10-24T11:52:45Z</time>
      </trkpt>
      <trkpt lat="49.09049" lon="0.74759">
        <ele>79.45</ele>
        <time>2020-10-24T11:52:46Z</time>
      </trkpt>
      <trkpt lat="49.09054" lon="0.74758">
        <ele>79.45</ele>
        <time>2020-10-24T11:52:47Z</time>
      </trkpt>
      <trkpt lat="49.09058" lon="0.74757">
        <ele>79.45</ele>
        <time>2020-10-24T11:52:48Z</time>
      </trkpt>
      <trkpt lat="49.0909" lon="0.74721">
        <ele>80.89</ele>
        <time>2020-10-24T11:52:59Z</time>
      </trkpt>
      <trkpt lat="49.09093" lon="0.74718">
        <ele>80.89</ele>
        <time>2020-10-24T11:53:00Z</time>
      </trkpt>
      <trkpt lat="49.09102" lon="0.74713">
        <ele>80.89</ele>
        <time>2020-10-24T11:53:02Z</time>
      </trkpt>
      <trkpt lat="49.09121" lon="0.74704">
        <ele>79.45</ele>
        <time>2020-10-24T11:53:06Z</time>
      </trkpt>
      <trkpt lat="49.09203" lon="0.74622">
        <ele>78</ele>
        <time>2020-10-24T11:53:20Z</time>
      </trkpt>
      <trkpt lat="49.09318" lon="0.7451">
        <ele>76.08</ele>
        <time>2020-10-24T11:53:38Z</time>
      </trkpt>
      <trkpt lat="49.09432" lon="0.74397">
        <ele>74.64</ele>
        <time>2020-10-24T11:53:54Z</time>
      </trkpt>
      <trkpt lat="49.09552" lon="0.74276">
        <ele>73.68</ele>
        <time>2020-10-24T11:54:10Z</time>
      </trkpt>
      <trkpt lat="49.09644" lon="0.74186">
        <ele>73.2</ele>
        <time>2020-10-24T11:54:26Z</time>
      </trkpt>
      <trkpt lat="49.09659" lon="0.74172">
        <ele>74.64</ele>
        <time>2020-10-24T11:54:29Z</time>
      </trkpt>
      <trkpt lat="49.09731" lon="0.74104">
        <ele>75.12</ele>
        <time>2020-10-24T11:54:46Z</time>
      </trkpt>
      <trkpt lat="49.09734" lon="0.741">
        <ele>78.97</ele>
        <time>2020-10-24T11:54:47Z</time>
      </trkpt>
      <trkpt lat="49.09755" lon="0.7408">
        <ele>76.08</ele>
        <time>2020-10-24T11:54:52Z</time>
      </trkpt>
      <trkpt lat="49.09761" lon="0.74074">
        <ele>77.04</ele>
        <time>2020-10-24T11:54:54Z</time>
      </trkpt>
      <trkpt lat="49.09818" lon="0.74014">
        <ele>77.52</ele>
        <time>2020-10-24T11:55:10Z</time>
      </trkpt>
      <trkpt lat="49.09825" lon="0.74008">
        <ele>77.52</ele>
        <time>2020-10-24T11:55:12Z</time>
      </trkpt>
      <trkpt lat="49.09885" lon="0.73946">
        <ele>79.45</ele>
        <time>2020-10-24T11:55:28Z</time>
      </trkpt>
      <trkpt lat="49.09937" lon="0.73892">
        <ele>82.33</ele>
        <time>2020-10-24T11:55:44Z</time>
      </trkpt>
      <trkpt lat="49.09948" lon="0.73853">
        <ele>82.33</ele>
        <time>2020-10-24T11:55:55Z</time>
      </trkpt>
      <trkpt lat="49.09948" lon="0.73851">
        <ele>82.33</ele>
        <time>2020-10-24T11:55:56Z</time>
      </trkpt>
      <trkpt lat="49.09949" lon="0.73845">
        <ele>82.81</ele>
        <time>2020-10-24T11:55:59Z</time>
      </trkpt>
      <trkpt lat="49.09948" lon="0.73844">
        <ele>82.81</ele>
        <time>2020-10-24T11:56:00Z</time>
      </trkpt>
      <trkpt lat="49.09947" lon="0.73842">
        <ele>82.81</ele>
        <time>2020-10-24T11:56:01Z</time>
      </trkpt>
      <trkpt lat="49.09946" lon="0.73842">
        <ele>83.29</ele>
        <time>2020-10-24T11:56:02Z</time>
      </trkpt>
      <trkpt lat="49.09944" lon="0.73842">
        <ele>83.29</ele>
        <time>2020-10-24T11:56:03Z</time>
      </trkpt>
      <trkpt lat="49.09942" lon="0.73842">
        <ele>83.29</ele>
        <time>2020-10-24T11:56:04Z</time>
      </trkpt>
      <trkpt lat="49.09925" lon="0.7384">
        <ele>86.18</ele>
        <time>2020-10-24T11:56:17Z</time>
      </trkpt>
      <trkpt lat="49.09903" lon="0.73845">
        <ele>88.58</ele>
        <time>2020-10-24T11:56:33Z</time>
      </trkpt>
      <trkpt lat="49.09887" lon="0.73849">
        <ele>91.46</ele>
        <time>2020-10-24T11:56:45Z</time>
      </trkpt>
      <trkpt lat="49.09869" lon="0.73853">
        <ele>94.83</ele>
        <time>2020-10-24T11:56:59Z</time>
      </trkpt>
      <trkpt lat="49.09854" lon="0.73857">
        <ele>96.75</ele>
        <time>2020-10-24T11:57:11Z</time>
      </trkpt>
      <trkpt lat="49.09833" lon="0.73863">
        <ele>98.67</ele>
        <time>2020-10-24T11:57:24Z</time>
      </trkpt>
      <trkpt lat="49.09807" lon="0.73871">
        <ele>100.6</ele>
        <time>2020-10-24T11:57:40Z</time>
      </trkpt>
      <trkpt lat="49.09777" lon="0.73876">
        <ele>103.48</ele>
        <time>2020-10-24T11:57:58Z</time>
      </trkpt>
      <trkpt lat="49.09751" lon="0.73876">
        <ele>106.36</ele>
        <time>2020-10-24T11:58:14Z</time>
      </trkpt>
      <trkpt lat="49.09732" lon="0.73875">
        <ele>109.25</ele>
        <time>2020-10-24T11:58:28Z</time>
      </trkpt>
      <trkpt lat="49.09715" lon="0.73874">
        <ele>112.61</ele>
        <time>2020-10-24T11:58:37Z</time>
      </trkpt>
      <trkpt lat="49.09708" lon="0.73875">
        <ele>114.05</ele>
        <time>2020-10-24T11:58:42Z</time>
      </trkpt>
      <trkpt lat="49.09707" lon="0.73875">
        <ele>114.53</ele>
        <time>2020-10-24T11:58:43Z</time>
      </trkpt>
      <trkpt lat="49.09697" lon="0.73876">
        <ele>116.46</ele>
        <time>2020-10-24T11:58:58Z</time>
      </trkpt>
      <trkpt lat="49.09691" lon="0.73877">
        <ele>116.46</ele>
        <time>2020-10-24T11:59:28Z</time>
      </trkpt>
      <trkpt lat="49.09684" lon="0.73878">
        <ele>117.9</ele>
        <time>2020-10-24T11:59:34Z</time>
      </trkpt>
      <trkpt lat="49.09683" lon="0.73879">
        <ele>118.38</ele>
        <time>2020-10-24T11:59:35Z</time>
      </trkpt>
      <trkpt lat="49.09681" lon="0.73879">
        <ele>118.38</ele>
        <time>2020-10-24T11:59:36Z</time>
      </trkpt>
      <trkpt lat="49.09661" lon="0.73882">
        <ele>121.74</ele>
        <time>2020-10-24T11:59:52Z</time>
      </trkpt>
      <trkpt lat="49.09642" lon="0.7389">
        <ele>123.67</ele>
        <time>2020-10-24T12:00:05Z</time>
      </trkpt>
      <trkpt lat="49.09619" lon="0.73891">
        <ele>127.03</ele>
        <time>2020-10-24T12:00:21Z</time>
      </trkpt>
      <trkpt lat="49.09601" lon="0.73881">
        <ele>130.4</ele>
        <time>2020-10-24T12:00:34Z</time>
      </trkpt>
      <trkpt lat="49.09585" lon="0.73868">
        <ele>133.28</ele>
        <time>2020-10-24T12:00:48Z</time>
      </trkpt>
      <trkpt lat="49.09569" lon="0.73858">
        <ele>135.68</ele>
        <time>2020-10-24T12:01:01Z</time>
      </trkpt>
      <trkpt lat="49.09568" lon="0.73857">
        <ele>136.16</ele>
        <time>2020-10-24T12:01:02Z</time>
      </trkpt>
      <trkpt lat="49.09549" lon="0.7384">
        <ele>136.64</ele>
        <time>2020-10-24T12:01:17Z</time>
      </trkpt>
      <trkpt lat="49.09529" lon="0.73811">
        <ele>138.57</ele>
        <time>2020-10-24T12:01:32Z</time>
      </trkpt>
      <trkpt lat="49.09521" lon="0.73785">
        <ele>139.53</ele>
        <time>2020-10-24T12:01:45Z</time>
      </trkpt>
      <trkpt lat="49.09513" lon="0.73761">
        <ele>139.53</ele>
        <time>2020-10-24T12:02:00Z</time>
      </trkpt>
      <trkpt lat="49.09495" lon="0.73706">
        <ele>140.01</ele>
        <time>2020-10-24T12:02:13Z</time>
      </trkpt>
      <trkpt lat="49.09471" lon="0.73639">
        <ele>140.97</ele>
        <time>2020-10-24T12:02:27Z</time>
      </trkpt>
      <trkpt lat="49.09451" lon="0.73581">
        <ele>140.97</ele>
        <time>2020-10-24T12:02:38Z</time>
      </trkpt>
      <trkpt lat="49.09427" lon="0.73506">
        <ele>141.93</ele>
        <time>2020-10-24T12:02:52Z</time>
      </trkpt>
      <trkpt lat="49.09401" lon="0.7343">
        <ele>142.89</ele>
        <time>2020-10-24T12:03:05Z</time>
      </trkpt>
      <trkpt lat="49.09379" lon="0.73365">
        <ele>143.37</ele>
        <time>2020-10-24T12:03:17Z</time>
      </trkpt>
      <trkpt lat="49.09352" lon="0.73294">
        <ele>144.82</ele>
        <time>2020-10-24T12:03:30Z</time>
      </trkpt>
      <trkpt lat="49.09327" lon="0.73215">
        <ele>144.82</ele>
        <time>2020-10-24T12:03:44Z</time>
      </trkpt>
      <trkpt lat="49.093" lon="0.73132">
        <ele>145.3</ele>
        <time>2020-10-24T12:03:58Z</time>
      </trkpt>
      <trkpt lat="49.09275" lon="0.73057">
        <ele>146.74</ele>
        <time>2020-10-24T12:04:11Z</time>
      </trkpt>
      <trkpt lat="49.09255" lon="0.73003">
        <ele>147.22</ele>
        <time>2020-10-24T12:04:21Z</time>
      </trkpt>
      <trkpt lat="49.09232" lon="0.72934">
        <ele>148.18</ele>
        <time>2020-10-24T12:04:34Z</time>
      </trkpt>
      <trkpt lat="49.09206" lon="0.72862">
        <ele>148.18</ele>
        <time>2020-10-24T12:04:46Z</time>
      </trkpt>
      <trkpt lat="49.09183" lon="0.72796">
        <ele>148.66</ele>
        <time>2020-10-24T12:04:57Z</time>
      </trkpt>
      <trkpt lat="49.09162" lon="0.72736">
        <ele>148.66</ele>
        <time>2020-10-24T12:05:08Z</time>
      </trkpt>
      <trkpt lat="49.09143" lon="0.72684">
        <ele>148.66</ele>
        <time>2020-10-24T12:05:19Z</time>
      </trkpt>
      <trkpt lat="49.09129" lon="0.72636">
        <ele>149.14</ele>
        <time>2020-10-24T12:05:28Z</time>
      </trkpt>
      <trkpt lat="49.09109" lon="0.72587">
        <ele>149.14</ele>
        <time>2020-10-24T12:05:37Z</time>
      </trkpt>
      <trkpt lat="49.09088" lon="0.72529">
        <ele>149.14</ele>
        <time>2020-10-24T12:05:48Z</time>
      </trkpt>
      <trkpt lat="49.09064" lon="0.7246">
        <ele>149.62</ele>
        <time>2020-10-24T12:05:59Z</time>
      </trkpt>
      <trkpt lat="49.09036" lon="0.72384">
        <ele>149.62</ele>
        <time>2020-10-24T12:06:12Z</time>
      </trkpt>
      <trkpt lat="49.09031" lon="0.72371">
        <ele>149.62</ele>
        <time>2020-10-24T12:06:14Z</time>
      </trkpt>
      <trkpt lat="49.09014" lon="0.72321">
        <ele>150.1</ele>
        <time>2020-10-24T12:06:22Z</time>
      </trkpt>
      <trkpt lat="49.08987" lon="0.72246">
        <ele>149.14</ele>
        <time>2020-10-24T12:06:34Z</time>
      </trkpt>
      <trkpt lat="49.08983" lon="0.72233">
        <ele>149.14</ele>
        <time>2020-10-24T12:06:36Z</time>
      </trkpt>
      <trkpt lat="49.0898" lon="0.72226">
        <ele>149.14</ele>
        <time>2020-10-24T12:06:37Z</time>
      </trkpt>
      <trkpt lat="49.08963" lon="0.72172">
        <ele>149.14</ele>
        <time>2020-10-24T12:06:44Z</time>
      </trkpt>
      <trkpt lat="49.0896" lon="0.72165">
        <ele>149.14</ele>
        <time>2020-10-24T12:06:45Z</time>
      </trkpt>
      <trkpt lat="49.08958" lon="0.72159">
        <ele>149.14</ele>
        <time>2020-10-24T12:06:46Z</time>
      </trkpt>
      <trkpt lat="49.08957" lon="0.72154">
        <ele>149.14</ele>
        <time>2020-10-24T12:06:47Z</time>
      </trkpt>
      <trkpt lat="49.08955" lon="0.72149">
        <ele>149.14</ele>
        <time>2020-10-24T12:06:48Z</time>
      </trkpt>
      <trkpt lat="49.08953" lon="0.72143">
        <ele>149.14</ele>
        <time>2020-10-24T12:06:49Z</time>
      </trkpt>
      <trkpt lat="49.08944" lon="0.72118">
        <ele>149.14</ele>
        <time>2020-10-24T12:06:54Z</time>
      </trkpt>
      <trkpt lat="49.08942" lon="0.72113">
        <ele>149.14</ele>
        <time>2020-10-24T12:06:55Z</time>
      </trkpt>
      <trkpt lat="49.0894" lon="0.72108">
        <ele>149.14</ele>
        <time>2020-10-24T12:06:56Z</time>
      </trkpt>
      <trkpt lat="49.08938" lon="0.72102">
        <ele>149.14</ele>
        <time>2020-10-24T12:06:57Z</time>
      </trkpt>
      <trkpt lat="49.08935" lon="0.72095">
        <ele>149.14</ele>
        <time>2020-10-24T12:06:58Z</time>
      </trkpt>
      <trkpt lat="49.08907" lon="0.72022">
        <ele>149.62</ele>
        <time>2020-10-24T12:07:09Z</time>
      </trkpt>
      <trkpt lat="49.08883" lon="0.71958">
        <ele>149.62</ele>
        <time>2020-10-24T12:07:21Z</time>
      </trkpt>
      <trkpt lat="49.0886" lon="0.71896">
        <ele>149.62</ele>
        <time>2020-10-24T12:07:33Z</time>
      </trkpt>
      <trkpt lat="49.08834" lon="0.71819">
        <ele>150.1</ele>
        <time>2020-10-24T12:07:46Z</time>
      </trkpt>
      <trkpt lat="49.08806" lon="0.71747">
        <ele>150.1</ele>
        <time>2020-10-24T12:07:59Z</time>
      </trkpt>
      <trkpt lat="49.08796" lon="0.71724">
        <ele>150.1</ele>
        <time>2020-10-24T12:08:03Z</time>
      </trkpt>
      <trkpt lat="49.08794" lon="0.71719">
        <ele>150.1</ele>
        <time>2020-10-24T12:08:04Z</time>
      </trkpt>
      <trkpt lat="49.08772" lon="0.71644">
        <ele>149.62</ele>
        <time>2020-10-24T12:08:17Z</time>
      </trkpt>
      <trkpt lat="49.08747" lon="0.71572">
        <ele>149.62</ele>
        <time>2020-10-24T12:08:29Z</time>
      </trkpt>
      <trkpt lat="49.08744" lon="0.71566">
        <ele>149.62</ele>
        <time>2020-10-24T12:08:30Z</time>
      </trkpt>
      <trkpt lat="49.08736" lon="0.7154">
        <ele>150.58</ele>
        <time>2020-10-24T12:08:34Z</time>
      </trkpt>
      <trkpt lat="49.08733" lon="0.71533">
        <ele>150.58</ele>
        <time>2020-10-24T12:08:35Z</time>
      </trkpt>
      <trkpt lat="49.08718" lon="0.71484">
        <ele>150.58</ele>
        <time>2020-10-24T12:08:43Z</time>
      </trkpt>
      <trkpt lat="49.08708" lon="0.71455">
        <ele>152.03</ele>
        <time>2020-10-24T12:08:48Z</time>
      </trkpt>
      <trkpt lat="49.08688" lon="0.71394">
        <ele>152.03</ele>
        <time>2020-10-24T12:09:00Z</time>
      </trkpt>
      <trkpt lat="49.08669" lon="0.71339">
        <ele>151.06</ele>
        <time>2020-10-24T12:09:12Z</time>
      </trkpt>
      <trkpt lat="49.08659" lon="0.71312">
        <ele>151.06</ele>
        <time>2020-10-24T12:09:18Z</time>
      </trkpt>
      <trkpt lat="49.08631" lon="0.71226">
        <ele>150.58</ele>
        <time>2020-10-24T12:09:32Z</time>
      </trkpt>
      <trkpt lat="49.08621" lon="0.71199">
        <ele>148.66</ele>
        <time>2020-10-24T12:09:39Z</time>
      </trkpt>
      <trkpt lat="49.08614" lon="0.7118">
        <ele>149.62</ele>
        <time>2020-10-24T12:09:44Z</time>
      </trkpt>
      <trkpt lat="49.08605" lon="0.71142">
        <ele>150.1</ele>
        <time>2020-10-24T12:09:59Z</time>
      </trkpt>
      <trkpt lat="49.08605" lon="0.71139">
        <ele>151.54</ele>
        <time>2020-10-24T12:10:06Z</time>
      </trkpt>
      <trkpt lat="49.08604" lon="0.71137">
        <ele>149.62</ele>
        <time>2020-10-24T12:10:09Z</time>
      </trkpt>
      <trkpt lat="49.08594" lon="0.71112">
        <ele>150.1</ele>
        <time>2020-10-24T12:10:24Z</time>
      </trkpt>
      <trkpt lat="49.08576" lon="0.71065">
        <ele>148.66</ele>
        <time>2020-10-24T12:10:34Z</time>
      </trkpt>
      <trkpt lat="49.08555" lon="0.7101">
        <ele>149.14</ele>
        <time>2020-10-24T12:10:46Z</time>
      </trkpt>
      <trkpt lat="49.08523" lon="0.70973">
        <ele>148.66</ele>
        <time>2020-10-24T12:10:56Z</time>
      </trkpt>
      <trkpt lat="49.08491" lon="0.70947">
        <ele>148.66</ele>
        <time>2020-10-24T12:11:06Z</time>
      </trkpt>
      <trkpt lat="49.08447" lon="0.70919">
        <ele>147.7</ele>
        <time>2020-10-24T12:11:16Z</time>
      </trkpt>
      <trkpt lat="49.08431" lon="0.70909">
        <ele>146.74</ele>
        <time>2020-10-24T12:11:23Z</time>
      </trkpt>
      <trkpt lat="49.0843" lon="0.7091">
        <ele>146.74</ele>
        <time>2020-10-24T12:11:24Z</time>
      </trkpt>
      <trkpt lat="49.08429" lon="0.70913">
        <ele>146.74</ele>
        <time>2020-10-24T12:11:25Z</time>
      </trkpt>
      <trkpt lat="49.08428" lon="0.70915">
        <ele>146.74</ele>
        <time>2020-10-24T12:11:26Z</time>
      </trkpt>
      <trkpt lat="49.08428" lon="0.70917">
        <ele>146.74</ele>
        <time>2020-10-24T12:11:27Z</time>
      </trkpt>
      <trkpt lat="49.08428" lon="0.70918">
        <ele>146.74</ele>
        <time>2020-10-24T12:11:28Z</time>
      </trkpt>
      <trkpt lat="49.08426" lon="0.70924">
        <ele>148.18</ele>
        <time>2020-10-24T12:11:31Z</time>
      </trkpt>
      <trkpt lat="49.08409" lon="0.70957">
        <ele>149.14</ele>
        <time>2020-10-24T12:11:43Z</time>
      </trkpt>
      <trkpt lat="49.08396" lon="0.70985">
        <ele>149.62</ele>
        <time>2020-10-24T12:11:53Z</time>
      </trkpt>
      <trkpt lat="49.08395" lon="0.70991">
        <ele>150.1</ele>
        <time>2020-10-24T12:12:02Z</time>
      </trkpt>
      <trkpt lat="49.08395" lon="0.70989">
        <ele>150.1</ele>
        <time>2020-10-24T12:12:03Z</time>
      </trkpt>
      <trkpt lat="49.08411" lon="0.70953">
        <ele>150.1</ele>
        <time>2020-10-24T12:12:13Z</time>
      </trkpt>
      <trkpt lat="49.08418" lon="0.70903">
        <ele>147.22</ele>
        <time>2020-10-24T12:12:25Z</time>
      </trkpt>
      <trkpt lat="49.08403" lon="0.70885">
        <ele>145.3</ele>
        <time>2020-10-24T12:12:31Z</time>
      </trkpt>
      <trkpt lat="49.0837" lon="0.70896">
        <ele>144.34</ele>
        <time>2020-10-24T12:12:40Z</time>
      </trkpt>
      <trkpt lat="49.08355" lon="0.70912">
        <ele>142.41</ele>
        <time>2020-10-24T12:12:44Z</time>
      </trkpt>
      <trkpt lat="49.08326" lon="0.70983">
        <ele>139.53</ele>
        <time>2020-10-24T12:12:56Z</time>
      </trkpt>
      <trkpt lat="49.08322" lon="0.71007">
        <ele>138.57</ele>
        <time>2020-10-24T12:13:00Z</time>
      </trkpt>
      <trkpt lat="49.08316" lon="0.7104">
        <ele>137.13</ele>
        <time>2020-10-24T12:13:05Z</time>
      </trkpt>
      <trkpt lat="49.08302" lon="0.71095">
        <ele>134.24</ele>
        <time>2020-10-24T12:13:14Z</time>
      </trkpt>
      <trkpt lat="49.083" lon="0.71101">
        <ele>134.24</ele>
        <time>2020-10-24T12:13:15Z</time>
      </trkpt>
      <trkpt lat="49.08269" lon="0.71153">
        <ele>130.88</ele>
        <time>2020-10-24T12:13:25Z</time>
      </trkpt>
      <trkpt lat="49.0823" lon="0.71186">
        <ele>127.99</ele>
        <time>2020-10-24T12:13:35Z</time>
      </trkpt>
      <trkpt lat="49.08225" lon="0.71188">
        <ele>127.03</ele>
        <time>2020-10-24T12:13:36Z</time>
      </trkpt>
      <trkpt lat="49.08221" lon="0.7119">
        <ele>127.03</ele>
        <time>2020-10-24T12:13:37Z</time>
      </trkpt>
      <trkpt lat="49.08215" lon="0.71191">
        <ele>127.03</ele>
        <time>2020-10-24T12:13:38Z</time>
      </trkpt>
      <trkpt lat="49.08209" lon="0.71191">
        <ele>126.07</ele>
        <time>2020-10-24T12:13:39Z</time>
      </trkpt>
      <trkpt lat="49.08204" lon="0.71191">
        <ele>126.07</ele>
        <time>2020-10-24T12:13:40Z</time>
      </trkpt>
      <trkpt lat="49.0818" lon="0.71189">
        <ele>124.63</ele>
        <time>2020-10-24T12:13:45Z</time>
      </trkpt>
      <trkpt lat="49.08174" lon="0.71188">
        <ele>124.63</ele>
        <time>2020-10-24T12:13:46Z</time>
      </trkpt>
      <trkpt lat="49.08135" lon="0.71176">
        <ele>121.74</ele>
        <time>2020-10-24T12:13:55Z</time>
      </trkpt>
      <trkpt lat="49.08104" lon="0.71163">
        <ele>119.82</ele>
        <time>2020-10-24T12:14:02Z</time>
      </trkpt>
      <trkpt lat="49.08085" lon="0.71147">
        <ele>118.38</ele>
        <time>2020-10-24T12:14:06Z</time>
      </trkpt>
      <trkpt lat="49.08073" lon="0.71134">
        <ele>117.42</ele>
        <time>2020-10-24T12:14:09Z</time>
      </trkpt>
      <trkpt lat="49.08069" lon="0.7113">
        <ele>116.94</ele>
        <time>2020-10-24T12:14:10Z</time>
      </trkpt>
      <trkpt lat="49.08066" lon="0.71126">
        <ele>116.94</ele>
        <time>2020-10-24T12:14:11Z</time>
      </trkpt>
      <trkpt lat="49.08025" lon="0.71067">
        <ele>114.05</ele>
        <time>2020-10-24T12:14:23Z</time>
      </trkpt>
      <trkpt lat="49.08013" lon="0.71047">
        <ele>114.05</ele>
        <time>2020-10-24T12:14:35Z</time>
      </trkpt>
      <trkpt lat="49.08012" lon="0.71045">
        <ele>112.61</ele>
        <time>2020-10-24T12:14:40Z</time>
      </trkpt>
      <trkpt lat="49.08009" lon="0.71022">
        <ele>112.61</ele>
        <time>2020-10-24T12:15:00Z</time>
      </trkpt>
      <trkpt lat="49.08017" lon="0.70981">
        <ele>112.61</ele>
        <time>2020-10-24T12:15:13Z</time>
      </trkpt>
      <trkpt lat="49.08029" lon="0.70931">
        <ele>112.61</ele>
        <time>2020-10-24T12:15:28Z</time>
      </trkpt>
      <trkpt lat="49.08024" lon="0.70894">
        <ele>113.57</ele>
        <time>2020-10-24T12:15:38Z</time>
      </trkpt>
      <trkpt lat="49.08006" lon="0.70865">
        <ele>116.46</ele>
        <time>2020-10-24T12:15:53Z</time>
      </trkpt>
      <trkpt lat="49.07986" lon="0.7083">
        <ele>118.38</ele>
        <time>2020-10-24T12:16:11Z</time>
      </trkpt>
      <trkpt lat="49.07969" lon="0.70796">
        <ele>121.26</ele>
        <time>2020-10-24T12:16:28Z</time>
      </trkpt>
      <trkpt lat="49.07963" lon="0.70784">
        <ele>122.22</ele>
        <time>2020-10-24T12:16:34Z</time>
      </trkpt>
      <trkpt lat="49.07963" lon="0.70782">
        <ele>122.71</ele>
        <time>2020-10-24T12:16:35Z</time>
      </trkpt>
      <trkpt lat="49.07962" lon="0.7078">
        <ele>122.71</ele>
        <time>2020-10-24T12:16:36Z</time>
      </trkpt>
      <trkpt lat="49.07961" lon="0.70779">
        <ele>122.71</ele>
        <time>2020-10-24T12:16:37Z</time>
      </trkpt>
      <trkpt lat="49.0796" lon="0.70777">
        <ele>123.67</ele>
        <time>2020-10-24T12:16:38Z</time>
      </trkpt>
      <trkpt lat="49.07959" lon="0.70776">
        <ele>123.67</ele>
        <time>2020-10-24T12:16:39Z</time>
      </trkpt>
      <trkpt lat="49.07945" lon="0.70747">
        <ele>125.59</ele>
        <time>2020-10-24T12:16:55Z</time>
      </trkpt>
      <trkpt lat="49.0793" lon="0.70718">
        <ele>127.51</ele>
        <time>2020-10-24T12:17:11Z</time>
      </trkpt>
      <trkpt lat="49.0791" lon="0.70688">
        <ele>129.92</ele>
        <time>2020-10-24T12:17:29Z</time>
      </trkpt>
      <trkpt lat="49.07884" lon="0.70662">
        <ele>132.32</ele>
        <time>2020-10-24T12:17:46Z</time>
      </trkpt>
      <trkpt lat="49.07853" lon="0.70631">
        <ele>132.8</ele>
        <time>2020-10-24T12:18:04Z</time>
      </trkpt>
      <trkpt lat="49.07829" lon="0.70586">
        <ele>134.72</ele>
        <time>2020-10-24T12:18:21Z</time>
      </trkpt>
      <trkpt lat="49.07822" lon="0.70565">
        <ele>135.68</ele>
        <time>2020-10-24T12:18:29Z</time>
      </trkpt>
      <trkpt lat="49.07822" lon="0.70563">
        <ele>135.68</ele>
        <time>2020-10-24T12:18:30Z</time>
      </trkpt>
      <trkpt lat="49.07821" lon="0.7056">
        <ele>136.16</ele>
        <time>2020-10-24T12:18:31Z</time>
      </trkpt>
      <trkpt lat="49.0782" lon="0.70557">
        <ele>136.16</ele>
        <time>2020-10-24T12:18:32Z</time>
      </trkpt>
      <trkpt lat="49.07819" lon="0.70555">
        <ele>136.16</ele>
        <time>2020-10-24T12:18:33Z</time>
      </trkpt>
      <trkpt lat="49.07818" lon="0.70552">
        <ele>136.64</ele>
        <time>2020-10-24T12:18:34Z</time>
      </trkpt>
      <trkpt lat="49.07817" lon="0.70549">
        <ele>137.13</ele>
        <time>2020-10-24T12:18:35Z</time>
      </trkpt>
      <trkpt lat="49.078" lon="0.70496">
        <ele>140.01</ele>
        <time>2020-10-24T12:18:55Z</time>
      </trkpt>
      <trkpt lat="49.07786" lon="0.70449">
        <ele>141.45</ele>
        <time>2020-10-24T12:19:13Z</time>
      </trkpt>
      <trkpt lat="49.07785" lon="0.70443">
        <ele>141.93</ele>
        <time>2020-10-24T12:19:15Z</time>
      </trkpt>
      <trkpt lat="49.07767" lon="0.70388">
        <ele>144.34</ele>
        <time>2020-10-24T12:19:34Z</time>
      </trkpt>
      <trkpt lat="49.0775" lon="0.70333">
        <ele>145.78</ele>
        <time>2020-10-24T12:19:51Z</time>
      </trkpt>
      <trkpt lat="49.07732" lon="0.7028">
        <ele>146.74</ele>
        <time>2020-10-24T12:20:08Z</time>
      </trkpt>
      <trkpt lat="49.0771" lon="0.70215">
        <ele>148.18</ele>
        <time>2020-10-24T12:20:27Z</time>
      </trkpt>
      <trkpt lat="49.07695" lon="0.70164">
        <ele>150.1</ele>
        <time>2020-10-24T12:20:42Z</time>
      </trkpt>
      <trkpt lat="49.07684" lon="0.70118">
        <ele>150.58</ele>
        <time>2020-10-24T12:20:54Z</time>
      </trkpt>
      <trkpt lat="49.07682" lon="0.70038">
        <ele>151.54</ele>
        <time>2020-10-24T12:21:09Z</time>
      </trkpt>
      <trkpt lat="49.07684" lon="0.69973">
        <ele>152.51</ele>
        <time>2020-10-24T12:21:22Z</time>
      </trkpt>
      <trkpt lat="49.07686" lon="0.6993">
        <ele>152.51</ele>
        <time>2020-10-24T12:21:29Z</time>
      </trkpt>
      <trkpt lat="49.07683" lon="0.6988">
        <ele>152.51</ele>
        <time>2020-10-24T12:21:36Z</time>
      </trkpt>
      <trkpt lat="49.07679" lon="0.69867">
        <ele>152.51</ele>
        <time>2020-10-24T12:21:38Z</time>
      </trkpt>
      <trkpt lat="49.07675" lon="0.69854">
        <ele>152.51</ele>
        <time>2020-10-24T12:21:40Z</time>
      </trkpt>
      <trkpt lat="49.07643" lon="0.6979">
        <ele>152.99</ele>
        <time>2020-10-24T12:21:53Z</time>
      </trkpt>
      <trkpt lat="49.0762" lon="0.69742">
        <ele>153.47</ele>
        <time>2020-10-24T12:22:08Z</time>
      </trkpt>
      <trkpt lat="49.07612" lon="0.69726">
        <ele>153.47</ele>
        <time>2020-10-24T12:22:21Z</time>
      </trkpt>
      <trkpt lat="49.0761" lon="0.69727">
        <ele>152.99</ele>
        <time>2020-10-24T12:22:44Z</time>
      </trkpt>
      <trkpt lat="49.0761" lon="0.69726">
        <ele>153.95</ele>
        <time>2020-10-24T12:22:57Z</time>
      </trkpt>
      <trkpt lat="49.07608" lon="0.69724">
        <ele>152.99</ele>
        <time>2020-10-24T12:23:06Z</time>
      </trkpt>
      <trkpt lat="49.07605" lon="0.69722">
        <ele>152.99</ele>
        <time>2020-10-24T12:23:07Z</time>
      </trkpt>
      <trkpt lat="49.07602" lon="0.69721">
        <ele>152.99</ele>
        <time>2020-10-24T12:23:08Z</time>
      </trkpt>
      <trkpt lat="49.076" lon="0.69721">
        <ele>152.99</ele>
        <time>2020-10-24T12:23:09Z</time>
      </trkpt>
      <trkpt lat="49.07598" lon="0.69723">
        <ele>152.99</ele>
        <time>2020-10-24T12:23:10Z</time>
      </trkpt>
      <trkpt lat="49.07595" lon="0.69725">
        <ele>152.99</ele>
        <time>2020-10-24T12:23:11Z</time>
      </trkpt>
      <trkpt lat="49.07593" lon="0.69727">
        <ele>152.99</ele>
        <time>2020-10-24T12:23:12Z</time>
      </trkpt>
      <trkpt lat="49.0759" lon="0.6973">
        <ele>152.99</ele>
        <time>2020-10-24T12:23:13Z</time>
      </trkpt>
      <trkpt lat="49.07531" lon="0.6979">
        <ele>152.99</ele>
        <time>2020-10-24T12:23:30Z</time>
      </trkpt>
      <trkpt lat="49.07465" lon="0.69883">
        <ele>154.43</ele>
        <time>2020-10-24T12:23:49Z</time>
      </trkpt>
      <trkpt lat="49.07459" lon="0.69892">
        <ele>154.43</ele>
        <time>2020-10-24T12:23:51Z</time>
      </trkpt>
      <trkpt lat="49.07445" lon="0.69908">
        <ele>154.91</ele>
        <time>2020-10-24T12:23:55Z</time>
      </trkpt>
      <trkpt lat="49.07442" lon="0.69911">
        <ele>154.91</ele>
        <time>2020-10-24T12:23:56Z</time>
      </trkpt>
      <trkpt lat="49.07438" lon="0.69913">
        <ele>154.91</ele>
        <time>2020-10-24T12:23:57Z</time>
      </trkpt>
      <trkpt lat="49.07434" lon="0.69914">
        <ele>154.91</ele>
        <time>2020-10-24T12:23:58Z</time>
      </trkpt>
      <trkpt lat="49.0743" lon="0.69915">
        <ele>155.39</ele>
        <time>2020-10-24T12:23:59Z</time>
      </trkpt>
      <trkpt lat="49.07426" lon="0.69915">
        <ele>155.39</ele>
        <time>2020-10-24T12:24:00Z</time>
      </trkpt>
      <trkpt lat="49.07422" lon="0.69914">
        <ele>155.39</ele>
        <time>2020-10-24T12:24:01Z</time>
      </trkpt>
      <trkpt lat="49.07418" lon="0.69913">
        <ele>155.39</ele>
        <time>2020-10-24T12:24:02Z</time>
      </trkpt>
      <trkpt lat="49.07351" lon="0.69891">
        <ele>155.87</ele>
        <time>2020-10-24T12:24:19Z</time>
      </trkpt>
      <trkpt lat="49.073" lon="0.69888">
        <ele>156.35</ele>
        <time>2020-10-24T12:24:32Z</time>
      </trkpt>
      <trkpt lat="49.07297" lon="0.69892">
        <ele>156.35</ele>
        <time>2020-10-24T12:24:33Z</time>
      </trkpt>
      <trkpt lat="49.07294" lon="0.69898">
        <ele>156.35</ele>
        <time>2020-10-24T12:24:34Z</time>
      </trkpt>
      <trkpt lat="49.07293" lon="0.69902">
        <ele>156.35</ele>
        <time>2020-10-24T12:24:35Z</time>
      </trkpt>
      <trkpt lat="49.07291" lon="0.69909">
        <ele>156.35</ele>
        <time>2020-10-24T12:24:36Z</time>
      </trkpt>
      <trkpt lat="49.07262" lon="0.70011">
        <ele>156.35</ele>
        <time>2020-10-24T12:24:51Z</time>
      </trkpt>
      <trkpt lat="49.07246" lon="0.70072">
        <ele>156.35</ele>
        <time>2020-10-24T12:24:59Z</time>
      </trkpt>
      <trkpt lat="49.07245" lon="0.7008">
        <ele>156.35</ele>
        <time>2020-10-24T12:25:00Z</time>
      </trkpt>
      <trkpt lat="49.07245" lon="0.7009">
        <ele>156.35</ele>
        <time>2020-10-24T12:25:01Z</time>
      </trkpt>
      <trkpt lat="49.07245" lon="0.70099">
        <ele>154.91</ele>
        <time>2020-10-24T12:25:02Z</time>
      </trkpt>
      <trkpt lat="49.07246" lon="0.70107">
        <ele>154.91</ele>
        <time>2020-10-24T12:25:03Z</time>
      </trkpt>
      <trkpt lat="49.07247" lon="0.70116">
        <ele>154.91</ele>
        <time>2020-10-24T12:25:04Z</time>
      </trkpt>
      <trkpt lat="49.07249" lon="0.70124">
        <ele>154.91</ele>
        <time>2020-10-24T12:25:05Z</time>
      </trkpt>
      <trkpt lat="49.07251" lon="0.70132">
        <ele>154.91</ele>
        <time>2020-10-24T12:25:06Z</time>
      </trkpt>
      <trkpt lat="49.07269" lon="0.70198">
        <ele>156.35</ele>
        <time>2020-10-24T12:25:15Z</time>
      </trkpt>
      <trkpt lat="49.07273" lon="0.70213">
        <ele>155.39</ele>
        <time>2020-10-24T12:25:18Z</time>
      </trkpt>
      <trkpt lat="49.07288" lon="0.70248">
        <ele>155.39</ele>
        <time>2020-10-24T12:25:28Z</time>
      </trkpt>
      <trkpt lat="49.07297" lon="0.70266">
        <ele>154.91</ele>
        <time>2020-10-24T12:25:43Z</time>
      </trkpt>
      <trkpt lat="49.07321" lon="0.70321">
        <ele>154.43</ele>
        <time>2020-10-24T12:25:57Z</time>
      </trkpt>
      <trkpt lat="49.07327" lon="0.70335">
        <ele>154.43</ele>
        <time>2020-10-24T12:26:02Z</time>
      </trkpt>
      <trkpt lat="49.07326" lon="0.70331">
        <ele>154.43</ele>
        <time>2020-10-24T12:26:11Z</time>
      </trkpt>
      <trkpt lat="49.07325" lon="0.70329">
        <ele>153.95</ele>
        <time>2020-10-24T12:26:12Z</time>
      </trkpt>
      <trkpt lat="49.07302" lon="0.70275">
        <ele>154.43</ele>
        <time>2020-10-24T12:26:24Z</time>
      </trkpt>
      <trkpt lat="49.07285" lon="0.70247">
        <ele>155.39</ele>
        <time>2020-10-24T12:26:30Z</time>
      </trkpt>
      <trkpt lat="49.07282" lon="0.70248">
        <ele>155.39</ele>
        <time>2020-10-24T12:26:31Z</time>
      </trkpt>
      <trkpt lat="49.07279" lon="0.70253">
        <ele>155.39</ele>
        <time>2020-10-24T12:26:32Z</time>
      </trkpt>
      <trkpt lat="49.07278" lon="0.7026">
        <ele>155.39</ele>
        <time>2020-10-24T12:26:34Z</time>
      </trkpt>
      <trkpt lat="49.07277" lon="0.70305">
        <ele>155.39</ele>
        <time>2020-10-24T12:26:41Z</time>
      </trkpt>
      <trkpt lat="49.07268" lon="0.70386">
        <ele>153.95</ele>
        <time>2020-10-24T12:26:54Z</time>
      </trkpt>
      <trkpt lat="49.07264" lon="0.70424">
        <ele>152.99</ele>
        <time>2020-10-24T12:27:05Z</time>
      </trkpt>
      <trkpt lat="49.07265" lon="0.70424">
        <ele>154.43</ele>
        <time>2020-10-24T12:27:09Z</time>
      </trkpt>
      <trkpt lat="49.07264" lon="0.70425">
        <ele>153.47</ele>
        <time>2020-10-24T12:27:20Z</time>
      </trkpt>
      <trkpt lat="49.07263" lon="0.70428">
        <ele>153.47</ele>
        <time>2020-10-24T12:27:26Z</time>
      </trkpt>
      <trkpt lat="49.07264" lon="0.7043">
        <ele>153.47</ele>
        <time>2020-10-24T12:27:27Z</time>
      </trkpt>
      <trkpt lat="49.07265" lon="0.70429">
        <ele>153.47</ele>
        <time>2020-10-24T12:27:28Z</time>
      </trkpt>
      <trkpt lat="49.07265" lon="0.70427">
        <ele>153.47</ele>
        <time>2020-10-24T12:27:29Z</time>
      </trkpt>
      <trkpt lat="49.07266" lon="0.70424">
        <ele>153.47</ele>
        <time>2020-10-24T12:27:30Z</time>
      </trkpt>
      <trkpt lat="49.07265" lon="0.70422">
        <ele>153.47</ele>
        <time>2020-10-24T12:27:31Z</time>
      </trkpt>
      <trkpt lat="49.07265" lon="0.7042">
        <ele>153.47</ele>
        <time>2020-10-24T12:27:32Z</time>
      </trkpt>
      <trkpt lat="49.07265" lon="0.70417">
        <ele>153.47</ele>
        <time>2020-10-24T12:27:33Z</time>
      </trkpt>
      <trkpt lat="49.07266" lon="0.70414">
        <ele>153.47</ele>
        <time>2020-10-24T12:27:34Z</time>
      </trkpt>
      <trkpt lat="49.07266" lon="0.70412">
        <ele>153.47</ele>
        <time>2020-10-24T12:27:35Z</time>
      </trkpt>
      <trkpt lat="49.07267" lon="0.70409">
        <ele>153.47</ele>
        <time>2020-10-24T12:27:36Z</time>
      </trkpt>
      <trkpt lat="49.07267" lon="0.70407">
        <ele>153.47</ele>
        <time>2020-10-24T12:27:37Z</time>
      </trkpt>
      <trkpt lat="49.07267" lon="0.70403">
        <ele>153.47</ele>
        <time>2020-10-24T12:27:38Z</time>
      </trkpt>
      <trkpt lat="49.07267" lon="0.704">
        <ele>153.47</ele>
        <time>2020-10-24T12:27:39Z</time>
      </trkpt>
      <trkpt lat="49.07268" lon="0.70396">
        <ele>153.47</ele>
        <time>2020-10-24T12:27:40Z</time>
      </trkpt>
      <trkpt lat="49.07268" lon="0.70392">
        <ele>153.47</ele>
        <time>2020-10-24T12:27:41Z</time>
      </trkpt>
      <trkpt lat="49.0727" lon="0.70368">
        <ele>154.91</ele>
        <time>2020-10-24T12:27:47Z</time>
      </trkpt>
      <trkpt lat="49.07277" lon="0.70299">
        <ele>155.39</ele>
        <time>2020-10-24T12:28:04Z</time>
      </trkpt>
      <trkpt lat="49.0728" lon="0.70245">
        <ele>154.91</ele>
        <time>2020-10-24T12:28:18Z</time>
      </trkpt>
      <trkpt lat="49.07276" lon="0.70235">
        <ele>154.91</ele>
        <time>2020-10-24T12:28:21Z</time>
      </trkpt>
      <trkpt lat="49.07273" lon="0.70235">
        <ele>154.91</ele>
        <time>2020-10-24T12:28:22Z</time>
      </trkpt>
      <trkpt lat="49.0727" lon="0.70236">
        <ele>154.91</ele>
        <time>2020-10-24T12:28:23Z</time>
      </trkpt>
      <trkpt lat="49.07268" lon="0.70238">
        <ele>154.91</ele>
        <time>2020-10-24T12:28:24Z</time>
      </trkpt>
      <trkpt lat="49.07266" lon="0.7024">
        <ele>154.91</ele>
        <time>2020-10-24T12:28:25Z</time>
      </trkpt>
      <trkpt lat="49.07264" lon="0.70242">
        <ele>154.91</ele>
        <time>2020-10-24T12:28:26Z</time>
      </trkpt>
      <trkpt lat="49.07262" lon="0.70244">
        <ele>154.91</ele>
        <time>2020-10-24T12:28:27Z</time>
      </trkpt>
      <trkpt lat="49.07234" lon="0.70264">
        <ele>155.39</ele>
        <time>2020-10-24T12:28:35Z</time>
      </trkpt>
      <trkpt lat="49.07197" lon="0.70297">
        <ele>154.43</ele>
        <time>2020-10-24T12:28:45Z</time>
      </trkpt>
      <trkpt lat="49.07151" lon="0.70308">
        <ele>154.43</ele>
        <time>2020-10-24T12:28:58Z</time>
      </trkpt>
      <trkpt lat="49.07144" lon="0.70309">
        <ele>154.43</ele>
        <time>2020-10-24T12:29:00Z</time>
      </trkpt>
      <trkpt lat="49.07141" lon="0.70311">
        <ele>152.99</ele>
        <time>2020-10-24T12:29:01Z</time>
      </trkpt>
      <trkpt lat="49.07138" lon="0.70314">
        <ele>152.99</ele>
        <time>2020-10-24T12:29:02Z</time>
      </trkpt>
      <trkpt lat="49.07104" lon="0.70359">
        <ele>152.99</ele>
        <time>2020-10-24T12:29:15Z</time>
      </trkpt>
      <trkpt lat="49.07065" lon="0.70402">
        <ele>154.43</ele>
        <time>2020-10-24T12:29:30Z</time>
      </trkpt>
      <trkpt lat="49.0706" lon="0.70406">
        <ele>154.91</ele>
        <time>2020-10-24T12:29:32Z</time>
      </trkpt>
      <trkpt lat="49.07039" lon="0.70419">
        <ele>151.54</ele>
        <time>2020-10-24T12:29:39Z</time>
      </trkpt>
      <trkpt lat="49.07007" lon="0.70436">
        <ele>152.51</ele>
        <time>2020-10-24T12:29:50Z</time>
      </trkpt>
      <trkpt lat="49.06986" lon="0.70443">
        <ele>151.06</ele>
        <time>2020-10-24T12:29:57Z</time>
      </trkpt>
      <trkpt lat="49.06964" lon="0.70446">
        <ele>152.51</ele>
        <time>2020-10-24T12:30:05Z</time>
      </trkpt>
      <trkpt lat="49.06941" lon="0.7044">
        <ele>151.06</ele>
        <time>2020-10-24T12:30:13Z</time>
      </trkpt>
      <trkpt lat="49.06905" lon="0.7044">
        <ele>152.51</ele>
        <time>2020-10-24T12:30:27Z</time>
      </trkpt>
      <trkpt lat="49.06866" lon="0.70476">
        <ele>153.47</ele>
        <time>2020-10-24T12:30:43Z</time>
      </trkpt>
      <trkpt lat="49.06847" lon="0.70516">
        <ele>155.39</ele>
        <time>2020-10-24T12:30:55Z</time>
      </trkpt>
      <trkpt lat="49.06845" lon="0.70573">
        <ele>155.87</ele>
        <time>2020-10-24T12:31:05Z</time>
      </trkpt>
      <trkpt lat="49.06841" lon="0.70628">
        <ele>155.87</ele>
        <time>2020-10-24T12:31:13Z</time>
      </trkpt>
      <trkpt lat="49.06839" lon="0.70671">
        <ele>155.87</ele>
        <time>2020-10-24T12:31:19Z</time>
      </trkpt>
      <trkpt lat="49.06831" lon="0.70724">
        <ele>154.43</ele>
        <time>2020-10-24T12:31:26Z</time>
      </trkpt>
      <trkpt lat="49.06798" lon="0.70847">
        <ele>154.43</ele>
        <time>2020-10-24T12:31:43Z</time>
      </trkpt>
      <trkpt lat="49.06777" lon="0.70894">
        <ele>154.43</ele>
        <time>2020-10-24T12:31:50Z</time>
      </trkpt>
      <trkpt lat="49.06774" lon="0.70899">
        <ele>153.95</ele>
        <time>2020-10-24T12:31:51Z</time>
      </trkpt>
      <trkpt lat="49.0674" lon="0.70935">
        <ele>153.95</ele>
        <time>2020-10-24T12:32:00Z</time>
      </trkpt>
      <trkpt lat="49.06726" lon="0.70953">
        <ele>153.47</ele>
        <time>2020-10-24T12:32:04Z</time>
      </trkpt>
      <trkpt lat="49.06698" lon="0.70984">
        <ele>152.03</ele>
        <time>2020-10-24T12:32:10Z</time>
      </trkpt>
      <trkpt lat="49.06694" lon="0.70991">
        <ele>152.03</ele>
        <time>2020-10-24T12:32:11Z</time>
      </trkpt>
      <trkpt lat="49.06693" lon="0.71">
        <ele>151.54</ele>
        <time>2020-10-24T12:32:12Z</time>
      </trkpt>
      <trkpt lat="49.06693" lon="0.7101">
        <ele>151.54</ele>
        <time>2020-10-24T12:32:13Z</time>
      </trkpt>
      <trkpt lat="49.06694" lon="0.71018">
        <ele>151.06</ele>
        <time>2020-10-24T12:32:14Z</time>
      </trkpt>
      <trkpt lat="49.06697" lon="0.71027">
        <ele>151.06</ele>
        <time>2020-10-24T12:32:15Z</time>
      </trkpt>
      <trkpt lat="49.067" lon="0.71037">
        <ele>151.06</ele>
        <time>2020-10-24T12:32:16Z</time>
      </trkpt>
      <trkpt lat="49.06703" lon="0.71044">
        <ele>151.06</ele>
        <time>2020-10-24T12:32:17Z</time>
      </trkpt>
      <trkpt lat="49.06707" lon="0.71053">
        <ele>151.06</ele>
        <time>2020-10-24T12:32:18Z</time>
      </trkpt>
      <trkpt lat="49.0675" lon="0.71155">
        <ele>149.62</ele>
        <time>2020-10-24T12:32:30Z</time>
      </trkpt>
      <trkpt lat="49.06795" lon="0.71229">
        <ele>149.62</ele>
        <time>2020-10-24T12:32:41Z</time>
      </trkpt>
      <trkpt lat="49.06796" lon="0.71237">
        <ele>149.62</ele>
        <time>2020-10-24T12:32:42Z</time>
      </trkpt>
      <trkpt lat="49.06793" lon="0.71246">
        <ele>149.14</ele>
        <time>2020-10-24T12:32:43Z</time>
      </trkpt>
      <trkpt lat="49.06791" lon="0.71251">
        <ele>149.14</ele>
        <time>2020-10-24T12:32:44Z</time>
      </trkpt>
      <trkpt lat="49.06787" lon="0.71258">
        <ele>148.66</ele>
        <time>2020-10-24T12:32:45Z</time>
      </trkpt>
      <trkpt lat="49.06783" lon="0.71264">
        <ele>148.66</ele>
        <time>2020-10-24T12:32:46Z</time>
      </trkpt>
      <trkpt lat="49.06775" lon="0.71276">
        <ele>148.66</ele>
        <time>2020-10-24T12:32:48Z</time>
      </trkpt>
      <trkpt lat="49.06741" lon="0.71324">
        <ele>147.22</ele>
        <time>2020-10-24T12:32:56Z</time>
      </trkpt>
      <trkpt lat="49.06737" lon="0.71329">
        <ele>147.22</ele>
        <time>2020-10-24T12:32:57Z</time>
      </trkpt>
      <trkpt lat="49.06732" lon="0.71333">
        <ele>147.22</ele>
        <time>2020-10-24T12:32:58Z</time>
      </trkpt>
      <trkpt lat="49.06728" lon="0.71337">
        <ele>147.22</ele>
        <time>2020-10-24T12:32:59Z</time>
      </trkpt>
      <trkpt lat="49.06722" lon="0.71341">
        <ele>146.74</ele>
        <time>2020-10-24T12:33:00Z</time>
      </trkpt>
      <trkpt lat="49.06717" lon="0.71344">
        <ele>146.74</ele>
        <time>2020-10-24T12:33:01Z</time>
      </trkpt>
      <trkpt lat="49.06688" lon="0.71362">
        <ele>145.3</ele>
        <time>2020-10-24T12:33:06Z</time>
      </trkpt>
      <trkpt lat="49.06665" lon="0.71379">
        <ele>144.34</ele>
        <time>2020-10-24T12:33:10Z</time>
      </trkpt>
      <trkpt lat="49.06661" lon="0.71385">
        <ele>144.34</ele>
        <time>2020-10-24T12:33:11Z</time>
      </trkpt>
      <trkpt lat="49.06657" lon="0.71393">
        <ele>144.34</ele>
        <time>2020-10-24T12:33:12Z</time>
      </trkpt>
      <trkpt lat="49.06653" lon="0.714">
        <ele>144.34</ele>
        <time>2020-10-24T12:33:13Z</time>
      </trkpt>
      <trkpt lat="49.0665" lon="0.71407">
        <ele>144.34</ele>
        <time>2020-10-24T12:33:14Z</time>
      </trkpt>
      <trkpt lat="49.06647" lon="0.71415">
        <ele>144.34</ele>
        <time>2020-10-24T12:33:15Z</time>
      </trkpt>
      <trkpt lat="49.06644" lon="0.71423">
        <ele>144.34</ele>
        <time>2020-10-24T12:33:16Z</time>
      </trkpt>
      <trkpt lat="49.06639" lon="0.71437">
        <ele>144.34</ele>
        <time>2020-10-24T12:33:18Z</time>
      </trkpt>
      <trkpt lat="49.06635" lon="0.71442">
        <ele>144.34</ele>
        <time>2020-10-24T12:33:19Z</time>
      </trkpt>
      <trkpt lat="49.06632" lon="0.71446">
        <ele>144.34</ele>
        <time>2020-10-24T12:33:20Z</time>
      </trkpt>
      <trkpt lat="49.06619" lon="0.71459">
        <ele>145.78</ele>
        <time>2020-10-24T12:33:23Z</time>
      </trkpt>
      <trkpt lat="49.06577" lon="0.71498">
        <ele>145.78</ele>
        <time>2020-10-24T12:33:32Z</time>
      </trkpt>
      <trkpt lat="49.06571" lon="0.715">
        <ele>144.34</ele>
        <time>2020-10-24T12:33:33Z</time>
      </trkpt>
      <trkpt lat="49.06565" lon="0.71498">
        <ele>143.85</ele>
        <time>2020-10-24T12:33:34Z</time>
      </trkpt>
      <trkpt lat="49.06559" lon="0.71493">
        <ele>143.37</ele>
        <time>2020-10-24T12:33:35Z</time>
      </trkpt>
      <trkpt lat="49.06554" lon="0.71487">
        <ele>143.37</ele>
        <time>2020-10-24T12:33:36Z</time>
      </trkpt>
      <trkpt lat="49.0655" lon="0.7148">
        <ele>143.37</ele>
        <time>2020-10-24T12:33:37Z</time>
      </trkpt>
      <trkpt lat="49.06546" lon="0.71473">
        <ele>143.37</ele>
        <time>2020-10-24T12:33:38Z</time>
      </trkpt>
      <trkpt lat="49.06542" lon="0.71467">
        <ele>143.37</ele>
        <time>2020-10-24T12:33:39Z</time>
      </trkpt>
      <trkpt lat="49.06529" lon="0.71444">
        <ele>144.82</ele>
        <time>2020-10-24T12:33:43Z</time>
      </trkpt>
      <trkpt lat="49.06498" lon="0.71399">
        <ele>145.3</ele>
        <time>2020-10-24T12:33:54Z</time>
      </trkpt>
      <trkpt lat="49.06486" lon="0.7138">
        <ele>145.78</ele>
        <time>2020-10-24T12:34:03Z</time>
      </trkpt>
      <trkpt lat="49.06485" lon="0.71388">
        <ele>145.78</ele>
        <time>2020-10-24T12:34:06Z</time>
      </trkpt>
      <trkpt lat="49.06487" lon="0.71392">
        <ele>145.78</ele>
        <time>2020-10-24T12:34:07Z</time>
      </trkpt>
      <trkpt lat="49.06489" lon="0.71395">
        <ele>145.78</ele>
        <time>2020-10-24T12:34:08Z</time>
      </trkpt>
      <trkpt lat="49.06491" lon="0.71398">
        <ele>145.78</ele>
        <time>2020-10-24T12:34:09Z</time>
      </trkpt>
      <trkpt lat="49.06494" lon="0.71402">
        <ele>145.3</ele>
        <time>2020-10-24T12:34:10Z</time>
      </trkpt>
      <trkpt lat="49.06524" lon="0.71452">
        <ele>142.89</ele>
        <time>2020-10-24T12:34:19Z</time>
      </trkpt>
      <trkpt lat="49.06537" lon="0.71482">
        <ele>139.53</ele>
        <time>2020-10-24T12:34:23Z</time>
      </trkpt>
      <trkpt lat="49.0654" lon="0.71492">
        <ele>139.05</ele>
        <time>2020-10-24T12:34:24Z</time>
      </trkpt>
      <trkpt lat="49.06543" lon="0.71502">
        <ele>138.57</ele>
        <time>2020-10-24T12:34:25Z</time>
      </trkpt>
      <trkpt lat="49.06549" lon="0.71529">
        <ele>136.16</ele>
        <time>2020-10-24T12:34:28Z</time>
      </trkpt>
      <trkpt lat="49.06553" lon="0.71568">
        <ele>133.28</ele>
        <time>2020-10-24T12:34:32Z</time>
      </trkpt>
      <trkpt lat="49.06553" lon="0.71579">
        <ele>132.32</ele>
        <time>2020-10-24T12:34:33Z</time>
      </trkpt>
      <trkpt lat="49.06552" lon="0.71589">
        <ele>131.36</ele>
        <time>2020-10-24T12:34:34Z</time>
      </trkpt>
      <trkpt lat="49.0655" lon="0.716">
        <ele>130.88</ele>
        <time>2020-10-24T12:34:35Z</time>
      </trkpt>
      <trkpt lat="49.06546" lon="0.71608">
        <ele>130.4</ele>
        <time>2020-10-24T12:34:36Z</time>
      </trkpt>
      <trkpt lat="49.06541" lon="0.71616">
        <ele>130.4</ele>
        <time>2020-10-24T12:34:37Z</time>
      </trkpt>
      <trkpt lat="49.06535" lon="0.71623">
        <ele>130.4</ele>
        <time>2020-10-24T12:34:38Z</time>
      </trkpt>
      <trkpt lat="49.0653" lon="0.71629">
        <ele>130.4</ele>
        <time>2020-10-24T12:34:39Z</time>
      </trkpt>
      <trkpt lat="49.06508" lon="0.71652">
        <ele>130.4</ele>
        <time>2020-10-24T12:34:43Z</time>
      </trkpt>
      <trkpt lat="49.06503" lon="0.71654">
        <ele>130.4</ele>
        <time>2020-10-24T12:34:44Z</time>
      </trkpt>
      <trkpt lat="49.06498" lon="0.71655">
        <ele>130.4</ele>
        <time>2020-10-24T12:34:45Z</time>
      </trkpt>
      <trkpt lat="49.06488" lon="0.71655">
        <ele>131.84</ele>
        <time>2020-10-24T12:34:48Z</time>
      </trkpt>
      <trkpt lat="49.06463" lon="0.71649">
        <ele>134.24</ele>
        <time>2020-10-24T12:34:59Z</time>
      </trkpt>
      <trkpt lat="49.06431" lon="0.71645">
        <ele>135.68</ele>
        <time>2020-10-24T12:35:11Z</time>
      </trkpt>
      <trkpt lat="49.06395" lon="0.7165">
        <ele>137.61</ele>
        <time>2020-10-24T12:35:23Z</time>
      </trkpt>
      <trkpt lat="49.06354" lon="0.71669">
        <ele>140.01</ele>
        <time>2020-10-24T12:35:38Z</time>
      </trkpt>
      <trkpt lat="49.0632" lon="0.71693">
        <ele>141.45</ele>
        <time>2020-10-24T12:35:52Z</time>
      </trkpt>
      <trkpt lat="49.0628" lon="0.71723">
        <ele>141.93</ele>
        <time>2020-10-24T12:36:06Z</time>
      </trkpt>
      <trkpt lat="49.06231" lon="0.71758">
        <ele>143.37</ele>
        <time>2020-10-24T12:36:22Z</time>
      </trkpt>
      <trkpt lat="49.06185" lon="0.71786">
        <ele>145.78</ele>
        <time>2020-10-24T12:36:38Z</time>
      </trkpt>
      <trkpt lat="49.06139" lon="0.71804">
        <ele>148.66</ele>
        <time>2020-10-24T12:36:55Z</time>
      </trkpt>
      <trkpt lat="49.06118" lon="0.71818">
        <ele>149.62</ele>
        <time>2020-10-24T12:37:08Z</time>
      </trkpt>
      <trkpt lat="49.06119" lon="0.7182">
        <ele>149.62</ele>
        <time>2020-10-24T12:37:10Z</time>
      </trkpt>
      <trkpt lat="49.0612" lon="0.7182">
        <ele>149.62</ele>
        <time>2020-10-24T12:37:11Z</time>
      </trkpt>
      <trkpt lat="49.06122" lon="0.71819">
        <ele>149.62</ele>
        <time>2020-10-24T12:37:12Z</time>
      </trkpt>
      <trkpt lat="49.06123" lon="0.71817">
        <ele>149.62</ele>
        <time>2020-10-24T12:37:13Z</time>
      </trkpt>
      <trkpt lat="49.06125" lon="0.71815">
        <ele>149.62</ele>
        <time>2020-10-24T12:37:14Z</time>
      </trkpt>
      <trkpt lat="49.06127" lon="0.71813">
        <ele>149.62</ele>
        <time>2020-10-24T12:37:15Z</time>
      </trkpt>
      <trkpt lat="49.06129" lon="0.71811">
        <ele>149.62</ele>
        <time>2020-10-24T12:37:16Z</time>
      </trkpt>
      <trkpt lat="49.0613" lon="0.7181">
        <ele>149.62</ele>
        <time>2020-10-24T12:37:17Z</time>
      </trkpt>
      <trkpt lat="49.06132" lon="0.7181">
        <ele>149.62</ele>
        <time>2020-10-24T12:37:18Z</time>
      </trkpt>
      <trkpt lat="49.06133" lon="0.7181">
        <ele>149.62</ele>
        <time>2020-10-24T12:37:19Z</time>
      </trkpt>
      <trkpt lat="49.06136" lon="0.71812">
        <ele>149.62</ele>
        <time>2020-10-24T12:37:22Z</time>
      </trkpt>
      <trkpt lat="49.06148" lon="0.71831">
        <ele>151.54</ele>
        <time>2020-10-24T12:37:34Z</time>
      </trkpt>
      <trkpt lat="49.06164" lon="0.71854">
        <ele>152.51</ele>
        <time>2020-10-24T12:37:45Z</time>
      </trkpt>
      <trkpt lat="49.06191" lon="0.71893">
        <ele>153.95</ele>
        <time>2020-10-24T12:38:00Z</time>
      </trkpt>
      <trkpt lat="49.06215" lon="0.71931">
        <ele>153.95</ele>
        <time>2020-10-24T12:38:12Z</time>
      </trkpt>
      <trkpt lat="49.06242" lon="0.71974">
        <ele>153.95</ele>
        <time>2020-10-24T12:38:25Z</time>
      </trkpt>
      <trkpt lat="49.06249" lon="0.71988">
        <ele>153.95</ele>
        <time>2020-10-24T12:38:38Z</time>
      </trkpt>
      <trkpt lat="49.06249" lon="0.71996">
        <ele>152.99</ele>
        <time>2020-10-24T12:38:54Z</time>
      </trkpt>
      <trkpt lat="49.06248" lon="0.71991">
        <ele>152.99</ele>
        <time>2020-10-24T12:39:01Z</time>
      </trkpt>
      <trkpt lat="49.06248" lon="0.7199">
        <ele>152.99</ele>
        <time>2020-10-24T12:39:02Z</time>
      </trkpt>
      <trkpt lat="49.06247" lon="0.71988">
        <ele>152.99</ele>
        <time>2020-10-24T12:39:03Z</time>
      </trkpt>
      <trkpt lat="49.06245" lon="0.71986">
        <ele>152.99</ele>
        <time>2020-10-24T12:39:04Z</time>
      </trkpt>
      <trkpt lat="49.06244" lon="0.71984">
        <ele>152.99</ele>
        <time>2020-10-24T12:39:05Z</time>
      </trkpt>
      <trkpt lat="49.06243" lon="0.71982">
        <ele>152.99</ele>
        <time>2020-10-24T12:39:06Z</time>
      </trkpt>
      <trkpt lat="49.06242" lon="0.71981">
        <ele>152.99</ele>
        <time>2020-10-24T12:39:07Z</time>
      </trkpt>
      <trkpt lat="49.06241" lon="0.71979">
        <ele>152.99</ele>
        <time>2020-10-24T12:39:08Z</time>
      </trkpt>
      <trkpt lat="49.0624" lon="0.71977">
        <ele>152.99</ele>
        <time>2020-10-24T12:39:09Z</time>
      </trkpt>
      <trkpt lat="49.06239" lon="0.71975">
        <ele>152.99</ele>
        <time>2020-10-24T12:39:10Z</time>
      </trkpt>
      <trkpt lat="49.06221" lon="0.71946">
        <ele>152.99</ele>
        <time>2020-10-24T12:39:21Z</time>
      </trkpt>
      <trkpt lat="49.06198" lon="0.7191">
        <ele>152.99</ele>
        <time>2020-10-24T12:39:33Z</time>
      </trkpt>
      <trkpt lat="49.06167" lon="0.71861">
        <ele>151.06</ele>
        <time>2020-10-24T12:39:46Z</time>
      </trkpt>
      <trkpt lat="49.06149" lon="0.71832">
        <ele>151.06</ele>
        <time>2020-10-24T12:39:55Z</time>
      </trkpt>
      <trkpt lat="49.06144" lon="0.7183">
        <ele>152.03</ele>
        <time>2020-10-24T12:40:11Z</time>
      </trkpt>
      <trkpt lat="49.06136" lon="0.71812">
        <ele>149.62</ele>
        <time>2020-10-24T12:40:25Z</time>
      </trkpt>
      <trkpt lat="49.06127" lon="0.71812">
        <ele>149.62</ele>
        <time>2020-10-24T12:40:29Z</time>
      </trkpt>
      <trkpt lat="49.06085" lon="0.71844">
        <ele>152.51</ele>
        <time>2020-10-24T12:40:44Z</time>
      </trkpt>
      <trkpt lat="49.06037" lon="0.71888">
        <ele>154.91</ele>
        <time>2020-10-24T12:40:59Z</time>
      </trkpt>
      <trkpt lat="49.05989" lon="0.71929">
        <ele>155.87</ele>
        <time>2020-10-24T12:41:13Z</time>
      </trkpt>
      <trkpt lat="49.05985" lon="0.71931">
        <ele>155.87</ele>
        <time>2020-10-24T12:41:14Z</time>
      </trkpt>
      <trkpt lat="49.05924" lon="0.71981">
        <ele>157.79</ele>
        <time>2020-10-24T12:41:29Z</time>
      </trkpt>
      <trkpt lat="49.05857" lon="0.72059">
        <ele>158.27</ele>
        <time>2020-10-24T12:41:47Z</time>
      </trkpt>
      <trkpt lat="49.05815" lon="0.72095">
        <ele>158.27</ele>
        <time>2020-10-24T12:42:01Z</time>
      </trkpt>
      <trkpt lat="49.05772" lon="0.72133">
        <ele>159.72</ele>
        <time>2020-10-24T12:42:16Z</time>
      </trkpt>
      <trkpt lat="49.05777" lon="0.72177">
        <ele>158.75</ele>
        <time>2020-10-24T12:42:26Z</time>
      </trkpt>
      <trkpt lat="49.05799" lon="0.7225">
        <ele>158.27</ele>
        <time>2020-10-24T12:42:37Z</time>
      </trkpt>
      <trkpt lat="49.05845" lon="0.7241">
        <ele>158.27</ele>
        <time>2020-10-24T12:42:53Z</time>
      </trkpt>
      <trkpt lat="49.05888" lon="0.72552">
        <ele>157.79</ele>
        <time>2020-10-24T12:43:07Z</time>
      </trkpt>
      <trkpt lat="49.05926" lon="0.72723">
        <ele>156.83</ele>
        <time>2020-10-24T12:43:23Z</time>
      </trkpt>
      <trkpt lat="49.05932" lon="0.72924">
        <ele>156.83</ele>
        <time>2020-10-24T12:43:40Z</time>
      </trkpt>
      <trkpt lat="49.05925" lon="0.73035">
        <ele>158.27</ele>
        <time>2020-10-24T12:43:49Z</time>
      </trkpt>
      <trkpt lat="49.05925" lon="0.73047">
        <ele>158.27</ele>
        <time>2020-10-24T12:43:50Z</time>
      </trkpt>
      <trkpt lat="49.0593" lon="0.73208">
        <ele>158.75</ele>
        <time>2020-10-24T12:44:06Z</time>
      </trkpt>
      <trkpt lat="49.0593" lon="0.73237">
        <ele>160.68</ele>
        <time>2020-10-24T12:44:09Z</time>
      </trkpt>
      <trkpt lat="49.05929" lon="0.73256">
        <ele>159.24</ele>
        <time>2020-10-24T12:44:11Z</time>
      </trkpt>
      <trkpt lat="49.05926" lon="0.73335">
        <ele>159.24</ele>
        <time>2020-10-24T12:44:20Z</time>
      </trkpt>
      <trkpt lat="49.0592" lon="0.7337">
        <ele>158.27</ele>
        <time>2020-10-24T12:44:24Z</time>
      </trkpt>
      <trkpt lat="49.05917" lon="0.73378">
        <ele>158.27</ele>
        <time>2020-10-24T12:44:25Z</time>
      </trkpt>
      <trkpt lat="49.05914" lon="0.73385">
        <ele>158.27</ele>
        <time>2020-10-24T12:44:26Z</time>
      </trkpt>
      <trkpt lat="49.05896" lon="0.73416">
        <ele>157.79</ele>
        <time>2020-10-24T12:44:32Z</time>
      </trkpt>
      <trkpt lat="49.05893" lon="0.73421">
        <ele>157.79</ele>
        <time>2020-10-24T12:44:33Z</time>
      </trkpt>
      <trkpt lat="49.05841" lon="0.73504">
        <ele>155.87</ele>
        <time>2020-10-24T12:44:47Z</time>
      </trkpt>
      <trkpt lat="49.05815" lon="0.73547">
        <ele>155.39</ele>
        <time>2020-10-24T12:44:56Z</time>
      </trkpt>
      <trkpt lat="49.05783" lon="0.73616">
        <ele>154.43</ele>
        <time>2020-10-24T12:45:06Z</time>
      </trkpt>
      <trkpt lat="49.0578" lon="0.7362">
        <ele>154.43</ele>
        <time>2020-10-24T12:45:07Z</time>
      </trkpt>
      <trkpt lat="49.05776" lon="0.73624">
        <ele>153.95</ele>
        <time>2020-10-24T12:45:08Z</time>
      </trkpt>
      <trkpt lat="49.05774" lon="0.7363">
        <ele>153.95</ele>
        <time>2020-10-24T12:45:09Z</time>
      </trkpt>
      <trkpt lat="49.05772" lon="0.73636">
        <ele>153.95</ele>
        <time>2020-10-24T12:45:10Z</time>
      </trkpt>
      <trkpt lat="49.05771" lon="0.73642">
        <ele>153.95</ele>
        <time>2020-10-24T12:45:11Z</time>
      </trkpt>
      <trkpt lat="49.0577" lon="0.73648">
        <ele>153.95</ele>
        <time>2020-10-24T12:45:12Z</time>
      </trkpt>
      <trkpt lat="49.0577" lon="0.73651">
        <ele>153.95</ele>
        <time>2020-10-24T12:45:13Z</time>
      </trkpt>
      <trkpt lat="49.05772" lon="0.73651">
        <ele>153.95</ele>
        <time>2020-10-24T12:45:14Z</time>
      </trkpt>
      <trkpt lat="49.05773" lon="0.73646">
        <ele>153.95</ele>
        <time>2020-10-24T12:45:15Z</time>
      </trkpt>
      <trkpt lat="49.05773" lon="0.73642">
        <ele>153.95</ele>
        <time>2020-10-24T12:45:16Z</time>
      </trkpt>
      <trkpt lat="49.05773" lon="0.73637">
        <ele>153.95</ele>
        <time>2020-10-24T12:45:17Z</time>
      </trkpt>
      <trkpt lat="49.05774" lon="0.73631">
        <ele>153.95</ele>
        <time>2020-10-24T12:45:18Z</time>
      </trkpt>
      <trkpt lat="49.05774" lon="0.73626">
        <ele>153.95</ele>
        <time>2020-10-24T12:45:19Z</time>
      </trkpt>
      <trkpt lat="49.05776" lon="0.7362">
        <ele>153.95</ele>
        <time>2020-10-24T12:45:20Z</time>
      </trkpt>
      <trkpt lat="49.05777" lon="0.73614">
        <ele>153.95</ele>
        <time>2020-10-24T12:45:21Z</time>
      </trkpt>
      <trkpt lat="49.0578" lon="0.73608">
        <ele>153.95</ele>
        <time>2020-10-24T12:45:22Z</time>
      </trkpt>
      <trkpt lat="49.05782" lon="0.73603">
        <ele>153.95</ele>
        <time>2020-10-24T12:45:23Z</time>
      </trkpt>
      <trkpt lat="49.05793" lon="0.73582">
        <ele>153.95</ele>
        <time>2020-10-24T12:45:27Z</time>
      </trkpt>
      <trkpt lat="49.05839" lon="0.73512">
        <ele>155.39</ele>
        <time>2020-10-24T12:45:42Z</time>
      </trkpt>
      <trkpt lat="49.05842" lon="0.73507">
        <ele>155.39</ele>
        <time>2020-10-24T12:45:43Z</time>
      </trkpt>
      <trkpt lat="49.05845" lon="0.73502">
        <ele>155.39</ele>
        <time>2020-10-24T12:45:44Z</time>
      </trkpt>
      <trkpt lat="49.05848" lon="0.73497">
        <ele>155.39</ele>
        <time>2020-10-24T12:45:45Z</time>
      </trkpt>
      <trkpt lat="49.05852" lon="0.73492">
        <ele>156.35</ele>
        <time>2020-10-24T12:45:46Z</time>
      </trkpt>
      <trkpt lat="49.05855" lon="0.73486">
        <ele>156.35</ele>
        <time>2020-10-24T12:45:47Z</time>
      </trkpt>
      <trkpt lat="49.05858" lon="0.73481">
        <ele>156.35</ele>
        <time>2020-10-24T12:45:48Z</time>
      </trkpt>
      <trkpt lat="49.05897" lon="0.73421">
        <ele>157.31</ele>
        <time>2020-10-24T12:46:01Z</time>
      </trkpt>
      <trkpt lat="49.05918" lon="0.73385">
        <ele>158.27</ele>
        <time>2020-10-24T12:46:11Z</time>
      </trkpt>
      <trkpt lat="49.0592" lon="0.73386">
        <ele>158.27</ele>
        <time>2020-10-24T12:46:12Z</time>
      </trkpt>
      <trkpt lat="49.05921" lon="0.73387">
        <ele>158.27</ele>
        <time>2020-10-24T12:46:13Z</time>
      </trkpt>
      <trkpt lat="49.05922" lon="0.73389">
        <ele>158.27</ele>
        <time>2020-10-24T12:46:14Z</time>
      </trkpt>
      <trkpt lat="49.05923" lon="0.7339">
        <ele>158.27</ele>
        <time>2020-10-24T12:46:15Z</time>
      </trkpt>
      <trkpt lat="49.05926" lon="0.73393">
        <ele>158.27</ele>
        <time>2020-10-24T12:46:24Z</time>
      </trkpt>
      <trkpt lat="49.0593" lon="0.73396">
        <ele>157.79</ele>
        <time>2020-10-24T12:46:41Z</time>
      </trkpt>
      <trkpt lat="49.05931" lon="0.73399">
        <ele>157.79</ele>
        <time>2020-10-24T12:46:49Z</time>
      </trkpt>
      <trkpt lat="49.05932" lon="0.73401">
        <ele>157.79</ele>
        <time>2020-10-24T12:46:50Z</time>
      </trkpt>
      <trkpt lat="49.05938" lon="0.73447">
        <ele>157.31</ele>
        <time>2020-10-24T12:47:02Z</time>
      </trkpt>
      <trkpt lat="49.05949" lon="0.73514">
        <ele>156.83</ele>
        <time>2020-10-24T12:47:14Z</time>
      </trkpt>
      <trkpt lat="49.05964" lon="0.73566">
        <ele>155.87</ele>
        <time>2020-10-24T12:47:25Z</time>
      </trkpt>
      <trkpt lat="49.05965" lon="0.73571">
        <ele>155.87</ele>
        <time>2020-10-24T12:47:26Z</time>
      </trkpt>
      <trkpt lat="49.05966" lon="0.73577">
        <ele>155.87</ele>
        <time>2020-10-24T12:47:27Z</time>
      </trkpt>
      <trkpt lat="49.05966" lon="0.73582">
        <ele>155.87</ele>
        <time>2020-10-24T12:47:28Z</time>
      </trkpt>
      <trkpt lat="49.05967" lon="0.73588">
        <ele>155.87</ele>
        <time>2020-10-24T12:47:29Z</time>
      </trkpt>
      <trkpt lat="49.05978" lon="0.73661">
        <ele>155.39</ele>
        <time>2020-10-24T12:47:41Z</time>
      </trkpt>
      <trkpt lat="49.05985" lon="0.73722">
        <ele>155.87</ele>
        <time>2020-10-24T12:47:52Z</time>
      </trkpt>
      <trkpt lat="49.05986" lon="0.73727">
        <ele>155.87</ele>
        <time>2020-10-24T12:47:53Z</time>
      </trkpt>
      <trkpt lat="49.05987" lon="0.73733">
        <ele>155.87</ele>
        <time>2020-10-24T12:47:54Z</time>
      </trkpt>
      <trkpt lat="49.05987" lon="0.73738">
        <ele>155.87</ele>
        <time>2020-10-24T12:47:55Z</time>
      </trkpt>
      <trkpt lat="49.05987" lon="0.73743">
        <ele>155.87</ele>
        <time>2020-10-24T12:47:56Z</time>
      </trkpt>
      <trkpt lat="49.05988" lon="0.73747">
        <ele>155.87</ele>
        <time>2020-10-24T12:47:57Z</time>
      </trkpt>
      <trkpt lat="49.05989" lon="0.73753">
        <ele>155.87</ele>
        <time>2020-10-24T12:47:58Z</time>
      </trkpt>
      <trkpt lat="49.0599" lon="0.73758">
        <ele>155.87</ele>
        <time>2020-10-24T12:47:59Z</time>
      </trkpt>
      <trkpt lat="49.05991" lon="0.73763">
        <ele>155.39</ele>
        <time>2020-10-24T12:48:00Z</time>
      </trkpt>
      <trkpt lat="49.05992" lon="0.73769">
        <ele>155.39</ele>
        <time>2020-10-24T12:48:01Z</time>
      </trkpt>
      <trkpt lat="49.05993" lon="0.73775">
        <ele>155.39</ele>
        <time>2020-10-24T12:48:02Z</time>
      </trkpt>
      <trkpt lat="49.06004" lon="0.73841">
        <ele>156.83</ele>
        <time>2020-10-24T12:48:13Z</time>
      </trkpt>
      <trkpt lat="49.06008" lon="0.73906">
        <ele>156.83</ele>
        <time>2020-10-24T12:48:24Z</time>
      </trkpt>
      <trkpt lat="49.06018" lon="0.73959">
        <ele>155.39</ele>
        <time>2020-10-24T12:48:33Z</time>
      </trkpt>
      <trkpt lat="49.06026" lon="0.74018">
        <ele>151.54</ele>
        <time>2020-10-24T12:48:41Z</time>
      </trkpt>
      <trkpt lat="49.06028" lon="0.74024">
        <ele>155.39</ele>
        <time>2020-10-24T12:48:42Z</time>
      </trkpt>
      <trkpt lat="49.06034" lon="0.74057">
        <ele>153.95</ele>
        <time>2020-10-24T12:48:47Z</time>
      </trkpt>
      <trkpt lat="49.06048" lon="0.74135">
        <ele>152.99</ele>
        <time>2020-10-24T12:48:57Z</time>
      </trkpt>
      <trkpt lat="49.0605" lon="0.74144">
        <ele>152.51</ele>
        <time>2020-10-24T12:48:58Z</time>
      </trkpt>
      <trkpt lat="49.06071" lon="0.74244">
        <ele>151.54</ele>
        <time>2020-10-24T12:49:11Z</time>
      </trkpt>
      <trkpt lat="49.06083" lon="0.74293">
        <ele>152.99</ele>
        <time>2020-10-24T12:49:20Z</time>
      </trkpt>
      <trkpt lat="49.06098" lon="0.74371">
        <ele>153.95</ele>
        <time>2020-10-24T12:49:34Z</time>
      </trkpt>
      <trkpt lat="49.06114" lon="0.74453">
        <ele>153.95</ele>
        <time>2020-10-24T12:49:48Z</time>
      </trkpt>
      <trkpt lat="49.06131" lon="0.74537">
        <ele>151.06</ele>
        <time>2020-10-24T12:50:02Z</time>
      </trkpt>
      <trkpt lat="49.06149" lon="0.74613">
        <ele>149.62</ele>
        <time>2020-10-24T12:50:14Z</time>
      </trkpt>
      <trkpt lat="49.06166" lon="0.74689">
        <ele>146.26</ele>
        <time>2020-10-24T12:50:27Z</time>
      </trkpt>
      <trkpt lat="49.06172" lon="0.74715">
        <ele>143.37</ele>
        <time>2020-10-24T12:50:35Z</time>
      </trkpt>
      <trkpt lat="49.06174" lon="0.74728">
        <ele>140.97</ele>
        <time>2020-10-24T12:50:41Z</time>
      </trkpt>
      <trkpt lat="49.06175" lon="0.74733">
        <ele>140.49</ele>
        <time>2020-10-24T12:50:43Z</time>
      </trkpt>
      <trkpt lat="49.06177" lon="0.74741">
        <ele>140.01</ele>
        <time>2020-10-24T12:50:46Z</time>
      </trkpt>
      <trkpt lat="49.06177" lon="0.74743">
        <ele>139.53</ele>
        <time>2020-10-24T12:50:47Z</time>
      </trkpt>
      <trkpt lat="49.06182" lon="0.74768">
        <ele>136.64</ele>
        <time>2020-10-24T12:50:56Z</time>
      </trkpt>
      <trkpt lat="49.06189" lon="0.74789">
        <ele>133.28</ele>
        <time>2020-10-24T12:51:05Z</time>
      </trkpt>
      <trkpt lat="49.06196" lon="0.74798">
        <ele>132.32</ele>
        <time>2020-10-24T12:51:16Z</time>
      </trkpt>
      <trkpt lat="49.06209" lon="0.74818">
        <ele>129.43</ele>
        <time>2020-10-24T12:51:29Z</time>
      </trkpt>
      <trkpt lat="49.06224" lon="0.7484">
        <ele>126.07</ele>
        <time>2020-10-24T12:51:37Z</time>
      </trkpt>
      <trkpt lat="49.06245" lon="0.74868">
        <ele>124.15</ele>
        <time>2020-10-24T12:51:48Z</time>
      </trkpt>
      <trkpt lat="49.06254" lon="0.7488">
        <ele>123.67</ele>
        <time>2020-10-24T12:51:55Z</time>
      </trkpt>
      <trkpt lat="49.06255" lon="0.74882">
        <ele>122.71</ele>
        <time>2020-10-24T12:51:56Z</time>
      </trkpt>
      <trkpt lat="49.0626" lon="0.7489">
        <ele>122.71</ele>
        <time>2020-10-24T12:51:59Z</time>
      </trkpt>
      <trkpt lat="49.06262" lon="0.74893">
        <ele>122.22</ele>
        <time>2020-10-24T12:52:00Z</time>
      </trkpt>
      <trkpt lat="49.06263" lon="0.74895">
        <ele>122.22</ele>
        <time>2020-10-24T12:52:01Z</time>
      </trkpt>
      <trkpt lat="49.06264" lon="0.74898">
        <ele>121.74</ele>
        <time>2020-10-24T12:52:02Z</time>
      </trkpt>
      <trkpt lat="49.06265" lon="0.749">
        <ele>121.74</ele>
        <time>2020-10-24T12:52:03Z</time>
      </trkpt>
      <trkpt lat="49.06274" lon="0.74917">
        <ele>119.34</ele>
        <time>2020-10-24T12:52:15Z</time>
      </trkpt>
      <trkpt lat="49.06282" lon="0.74934">
        <ele>118.38</ele>
        <time>2020-10-24T12:52:23Z</time>
      </trkpt>
      <trkpt lat="49.06283" lon="0.74936">
        <ele>117.9</ele>
        <time>2020-10-24T12:52:24Z</time>
      </trkpt>
      <trkpt lat="49.06284" lon="0.74938">
        <ele>117.9</ele>
        <time>2020-10-24T12:52:25Z</time>
      </trkpt>
      <trkpt lat="49.06285" lon="0.7494">
        <ele>117.9</ele>
        <time>2020-10-24T12:52:26Z</time>
      </trkpt>
      <trkpt lat="49.06286" lon="0.74942">
        <ele>116.94</ele>
        <time>2020-10-24T12:52:27Z</time>
      </trkpt>
      <trkpt lat="49.06295" lon="0.74957">
        <ele>116.46</ele>
        <time>2020-10-24T12:52:39Z</time>
      </trkpt>
      <trkpt lat="49.06295" lon="0.74967">
        <ele>117.42</ele>
        <time>2020-10-24T12:52:55Z</time>
      </trkpt>
      <trkpt lat="49.06296" lon="0.74969">
        <ele>115.98</ele>
        <time>2020-10-24T12:52:57Z</time>
      </trkpt>
      <trkpt lat="49.06297" lon="0.74971">
        <ele>115.98</ele>
        <time>2020-10-24T12:52:58Z</time>
      </trkpt>
      <trkpt lat="49.06298" lon="0.74974">
        <ele>115.5</ele>
        <time>2020-10-24T12:52:59Z</time>
      </trkpt>
      <trkpt lat="49.06298" lon="0.74978">
        <ele>115.5</ele>
        <time>2020-10-24T12:53:00Z</time>
      </trkpt>
      <trkpt lat="49.06299" lon="0.74982">
        <ele>115.01</ele>
        <time>2020-10-24T12:53:01Z</time>
      </trkpt>
      <trkpt lat="49.06299" lon="0.74987">
        <ele>114.05</ele>
        <time>2020-10-24T12:53:02Z</time>
      </trkpt>
      <trkpt lat="49.063" lon="0.74993">
        <ele>114.05</ele>
        <time>2020-10-24T12:53:03Z</time>
      </trkpt>
      <trkpt lat="49.06301" lon="0.75006">
        <ele>112.61</ele>
        <time>2020-10-24T12:53:05Z</time>
      </trkpt>
      <trkpt lat="49.06302" lon="0.75013">
        <ele>113.09</ele>
        <time>2020-10-24T12:53:06Z</time>
      </trkpt>
      <trkpt lat="49.06303" lon="0.75018">
        <ele>112.61</ele>
        <time>2020-10-24T12:53:07Z</time>
      </trkpt>
      <trkpt lat="49.06305" lon="0.75023">
        <ele>112.13</ele>
        <time>2020-10-24T12:53:08Z</time>
      </trkpt>
      <trkpt lat="49.06307" lon="0.75028">
        <ele>112.13</ele>
        <time>2020-10-24T12:53:09Z</time>
      </trkpt>
      <trkpt lat="49.06309" lon="0.75031">
        <ele>112.13</ele>
        <time>2020-10-24T12:53:10Z</time>
      </trkpt>
      <trkpt lat="49.06312" lon="0.75034">
        <ele>112.13</ele>
        <time>2020-10-24T12:53:11Z</time>
      </trkpt>
      <trkpt lat="49.06339" lon="0.75066">
        <ele>110.21</ele>
        <time>2020-10-24T12:53:24Z</time>
      </trkpt>
      <trkpt lat="49.06374" lon="0.75128">
        <ele>108.77</ele>
        <time>2020-10-24T12:53:40Z</time>
      </trkpt>
      <trkpt lat="49.06403" lon="0.75196">
        <ele>106.84</ele>
        <time>2020-10-24T12:53:55Z</time>
      </trkpt>
      <trkpt lat="49.06404" lon="0.75202">
        <ele>106.84</ele>
        <time>2020-10-24T12:53:56Z</time>
      </trkpt>
      <trkpt lat="49.06405" lon="0.75208">
        <ele>106.36</ele>
        <time>2020-10-24T12:53:57Z</time>
      </trkpt>
      <trkpt lat="49.06409" lon="0.75245">
        <ele>103.96</ele>
        <time>2020-10-24T12:54:02Z</time>
      </trkpt>
      <trkpt lat="49.06409" lon="0.75252">
        <ele>103</ele>
        <time>2020-10-24T12:54:03Z</time>
      </trkpt>
      <trkpt lat="49.06409" lon="0.75259">
        <ele>103</ele>
        <time>2020-10-24T12:54:04Z</time>
      </trkpt>
      <trkpt lat="49.0641" lon="0.75266">
        <ele>102.52</ele>
        <time>2020-10-24T12:54:05Z</time>
      </trkpt>
      <trkpt lat="49.06411" lon="0.75272">
        <ele>102.52</ele>
        <time>2020-10-24T12:54:06Z</time>
      </trkpt>
      <trkpt lat="49.06414" lon="0.75285">
        <ele>102.52</ele>
        <time>2020-10-24T12:54:08Z</time>
      </trkpt>
      <trkpt lat="49.06416" lon="0.75291">
        <ele>102.52</ele>
        <time>2020-10-24T12:54:09Z</time>
      </trkpt>
      <trkpt lat="49.06418" lon="0.75296">
        <ele>102.52</ele>
        <time>2020-10-24T12:54:10Z</time>
      </trkpt>
      <trkpt lat="49.06426" lon="0.75355">
        <ele>102.04</ele>
        <time>2020-10-24T12:54:24Z</time>
      </trkpt>
      <trkpt lat="49.06428" lon="0.75364">
        <ele>102.04</ele>
        <time>2020-10-24T12:54:34Z</time>
      </trkpt>
      <trkpt lat="49.06428" lon="0.75367">
        <ele>102.04</ele>
        <time>2020-10-24T12:54:41Z</time>
      </trkpt>
      <trkpt lat="49.06428" lon="0.7537">
        <ele>102.04</ele>
        <time>2020-10-24T12:54:42Z</time>
      </trkpt>
      <trkpt lat="49.06429" lon="0.75373">
        <ele>102.04</ele>
        <time>2020-10-24T12:54:43Z</time>
      </trkpt>
      <trkpt lat="49.06433" lon="0.75416">
        <ele>102.04</ele>
        <time>2020-10-24T12:54:51Z</time>
      </trkpt>
      <trkpt lat="49.06433" lon="0.7543">
        <ele>102.04</ele>
        <time>2020-10-24T12:54:53Z</time>
      </trkpt>
      <trkpt lat="49.06434" lon="0.7545">
        <ele>98.67</ele>
        <time>2020-10-24T12:54:56Z</time>
      </trkpt>
      <trkpt lat="49.06435" lon="0.75457">
        <ele>102.52</ele>
        <time>2020-10-24T12:54:57Z</time>
      </trkpt>
      <trkpt lat="49.06436" lon="0.7547">
        <ele>103.48</ele>
        <time>2020-10-24T12:54:59Z</time>
      </trkpt>
      <trkpt lat="49.06437" lon="0.75483">
        <ele>102.52</ele>
        <time>2020-10-24T12:55:01Z</time>
      </trkpt>
      <trkpt lat="49.06438" lon="0.75505">
        <ele>102.52</ele>
        <time>2020-10-24T12:55:04Z</time>
      </trkpt>
      <trkpt lat="49.06439" lon="0.75534">
        <ele>102.52</ele>
        <time>2020-10-24T12:55:08Z</time>
      </trkpt>
      <trkpt lat="49.06439" lon="0.75558">
        <ele>102.52</ele>
        <time>2020-10-24T12:55:11Z</time>
      </trkpt>
      <trkpt lat="49.06439" lon="0.75566">
        <ele>102.52</ele>
        <time>2020-10-24T12:55:12Z</time>
      </trkpt>
      <trkpt lat="49.0644" lon="0.75574">
        <ele>102.52</ele>
        <time>2020-10-24T12:55:13Z</time>
      </trkpt>
      <trkpt lat="49.0644" lon="0.75582">
        <ele>102.52</ele>
        <time>2020-10-24T12:55:14Z</time>
      </trkpt>
      <trkpt lat="49.06441" lon="0.7559">
        <ele>102.52</ele>
        <time>2020-10-24T12:55:15Z</time>
      </trkpt>
      <trkpt lat="49.06441" lon="0.75598">
        <ele>102.52</ele>
        <time>2020-10-24T12:55:16Z</time>
      </trkpt>
      <trkpt lat="49.06441" lon="0.75605">
        <ele>102.04</ele>
        <time>2020-10-24T12:55:17Z</time>
      </trkpt>
      <trkpt lat="49.06443" lon="0.75634">
        <ele>102.04</ele>
        <time>2020-10-24T12:55:21Z</time>
      </trkpt>
      <trkpt lat="49.06445" lon="0.75654">
        <ele>102.04</ele>
        <time>2020-10-24T12:55:24Z</time>
      </trkpt>
      <trkpt lat="49.06451" lon="0.75684">
        <ele>102.04</ele>
        <time>2020-10-24T12:55:28Z</time>
      </trkpt>
      <trkpt lat="49.06453" lon="0.75689">
        <ele>102.04</ele>
        <time>2020-10-24T12:55:29Z</time>
      </trkpt>
      <trkpt lat="49.06463" lon="0.75715">
        <ele>102.04</ele>
        <time>2020-10-24T12:55:33Z</time>
      </trkpt>
      <trkpt lat="49.06466" lon="0.75722">
        <ele>102.04</ele>
        <time>2020-10-24T12:55:34Z</time>
      </trkpt>
      <trkpt lat="49.06517" lon="0.75817">
        <ele>102.04</ele>
        <time>2020-10-24T12:55:50Z</time>
      </trkpt>
      <trkpt lat="49.06527" lon="0.75838">
        <ele>102.04</ele>
        <time>2020-10-24T12:55:53Z</time>
      </trkpt>
      <trkpt lat="49.06548" lon="0.75879">
        <ele>100.6</ele>
        <time>2020-10-24T12:55:59Z</time>
      </trkpt>
      <trkpt lat="49.06564" lon="0.7591">
        <ele>100.11</ele>
        <time>2020-10-24T12:56:08Z</time>
      </trkpt>
      <trkpt lat="49.06584" lon="0.75928">
        <ele>100.11</ele>
        <time>2020-10-24T12:56:23Z</time>
      </trkpt>
      <trkpt lat="49.06608" lon="0.75941">
        <ele>100.11</ele>
        <time>2020-10-24T12:56:37Z</time>
      </trkpt>
      <trkpt lat="49.0661" lon="0.75941">
        <ele>100.11</ele>
        <time>2020-10-24T12:56:42Z</time>
      </trkpt>
      <trkpt lat="49.0661" lon="0.75936">
        <ele>100.11</ele>
        <time>2020-10-24T12:56:46Z</time>
      </trkpt>
      <trkpt lat="49.0659" lon="0.75928">
        <ele>96.27</ele>
        <time>2020-10-24T12:56:59Z</time>
      </trkpt>
      <trkpt lat="49.06588" lon="0.75927">
        <ele>103.48</ele>
        <time>2020-10-24T12:57:00Z</time>
      </trkpt>
      <trkpt lat="49.06587" lon="0.75926">
        <ele>98.67</ele>
        <time>2020-10-24T12:57:01Z</time>
      </trkpt>
      <trkpt lat="49.06585" lon="0.75925">
        <ele>103</ele>
        <time>2020-10-24T12:57:02Z</time>
      </trkpt>
      <trkpt lat="49.06574" lon="0.75916">
        <ele>100.6</ele>
        <time>2020-10-24T12:57:10Z</time>
      </trkpt>
      <trkpt lat="49.06568" lon="0.75912">
        <ele>100.6</ele>
        <time>2020-10-24T12:57:14Z</time>
      </trkpt>
      <trkpt lat="49.06562" lon="0.75906">
        <ele>100.6</ele>
        <time>2020-10-24T12:57:19Z</time>
      </trkpt>
      <trkpt lat="49.06549" lon="0.75882">
        <ele>101.56</ele>
        <time>2020-10-24T12:57:30Z</time>
      </trkpt>
      <trkpt lat="49.06528" lon="0.75839">
        <ele>102.52</ele>
        <time>2020-10-24T12:57:43Z</time>
      </trkpt>
      <trkpt lat="49.06495" lon="0.75776">
        <ele>103.48</ele>
        <time>2020-10-24T12:57:59Z</time>
      </trkpt>
      <trkpt lat="49.0647" lon="0.75727">
        <ele>103.48</ele>
        <time>2020-10-24T12:58:11Z</time>
      </trkpt>
      <trkpt lat="49.06452" lon="0.75686">
        <ele>103.96</ele>
        <time>2020-10-24T12:58:24Z</time>
      </trkpt>
      <trkpt lat="49.0645" lon="0.75676">
        <ele>103.48</ele>
        <time>2020-10-24T12:58:28Z</time>
      </trkpt>
      <trkpt lat="49.06456" lon="0.75649">
        <ele>106.36</ele>
        <time>2020-10-24T12:58:40Z</time>
      </trkpt>
      <trkpt lat="49.06458" lon="0.75649">
        <ele>106.84</ele>
        <time>2020-10-24T12:58:54Z</time>
      </trkpt>
      <trkpt lat="49.06459" lon="0.75648">
        <ele>107.32</ele>
        <time>2020-10-24T12:59:08Z</time>
      </trkpt>
      <trkpt lat="49.06458" lon="0.75647">
        <ele>107.81</ele>
        <time>2020-10-24T12:59:19Z</time>
      </trkpt>
      <trkpt lat="49.06459" lon="0.75645">
        <ele>106.36</ele>
        <time>2020-10-24T12:59:39Z</time>
      </trkpt>
      <trkpt lat="49.0646" lon="0.75644">
        <ele>107.81</ele>
        <time>2020-10-24T12:59:41Z</time>
      </trkpt>
      <trkpt lat="49.06462" lon="0.75645">
        <ele>106.84</ele>
        <time>2020-10-24T12:59:44Z</time>
      </trkpt>
      <trkpt lat="49.06466" lon="0.75648">
        <ele>108.29</ele>
        <time>2020-10-24T12:59:48Z</time>
      </trkpt>
      <trkpt lat="49.06479" lon="0.75664">
        <ele>111.65</ele>
        <time>2020-10-24T13:00:02Z</time>
      </trkpt>
      <trkpt lat="49.0649" lon="0.75673">
        <ele>113.09</ele>
        <time>2020-10-24T13:00:15Z</time>
      </trkpt>
      <trkpt lat="49.06498" lon="0.75682">
        <ele>115.5</ele>
        <time>2020-10-24T13:00:27Z</time>
      </trkpt>
      <trkpt lat="49.06511" lon="0.75697">
        <ele>117.42</ele>
        <time>2020-10-24T13:00:43Z</time>
      </trkpt>
      <trkpt lat="49.06519" lon="0.75707">
        <ele>119.82</ele>
        <time>2020-10-24T13:01:00Z</time>
      </trkpt>
      <trkpt lat="49.0653" lon="0.75716">
        <ele>122.22</ele>
        <time>2020-10-24T13:01:18Z</time>
      </trkpt>
      <trkpt lat="49.06535" lon="0.75722">
        <ele>123.67</ele>
        <time>2020-10-24T13:01:27Z</time>
      </trkpt>
      <trkpt lat="49.06549" lon="0.75734">
        <ele>126.55</ele>
        <time>2020-10-24T13:01:42Z</time>
      </trkpt>
      <trkpt lat="49.06564" lon="0.75747">
        <ele>128.95</ele>
        <time>2020-10-24T13:01:59Z</time>
      </trkpt>
      <trkpt lat="49.06579" lon="0.75759">
        <ele>129.92</ele>
        <time>2020-10-24T13:02:13Z</time>
      </trkpt>
      <trkpt lat="49.06592" lon="0.75768">
        <ele>131.36</ele>
        <time>2020-10-24T13:02:26Z</time>
      </trkpt>
      <trkpt lat="49.06599" lon="0.75762">
        <ele>131.84</ele>
        <time>2020-10-24T13:02:40Z</time>
      </trkpt>
      <trkpt lat="49.066" lon="0.7576">
        <ele>133.28</ele>
        <time>2020-10-24T13:02:43Z</time>
      </trkpt>
      <trkpt lat="49.06601" lon="0.75749">
        <ele>135.68</ele>
        <time>2020-10-24T13:02:58Z</time>
      </trkpt>
      <trkpt lat="49.06602" lon="0.7574">
        <ele>136.16</ele>
        <time>2020-10-24T13:03:14Z</time>
      </trkpt>
      <trkpt lat="49.06602" lon="0.7572">
        <ele>138.09</ele>
        <time>2020-10-24T13:03:31Z</time>
      </trkpt>
      <trkpt lat="49.06603" lon="0.7571">
        <ele>140.01</ele>
        <time>2020-10-24T13:03:40Z</time>
      </trkpt>
      <trkpt lat="49.06605" lon="0.75696">
        <ele>140.97</ele>
        <time>2020-10-24T13:03:54Z</time>
      </trkpt>
      <trkpt lat="49.06606" lon="0.75672">
        <ele>143.37</ele>
        <time>2020-10-24T13:04:10Z</time>
      </trkpt>
      <trkpt lat="49.06608" lon="0.75668">
        <ele>143.37</ele>
        <time>2020-10-24T13:04:13Z</time>
      </trkpt>
      <trkpt lat="49.06611" lon="0.75661">
        <ele>144.82</ele>
        <time>2020-10-24T13:04:29Z</time>
      </trkpt>
      <trkpt lat="49.0662" lon="0.75644">
        <ele>146.26</ele>
        <time>2020-10-24T13:04:42Z</time>
      </trkpt>
      <trkpt lat="49.06628" lon="0.7563">
        <ele>146.26</ele>
        <time>2020-10-24T13:05:05Z</time>
      </trkpt>
      <trkpt lat="49.06642" lon="0.75606">
        <ele>149.62</ele>
        <time>2020-10-24T13:05:20Z</time>
      </trkpt>
      <trkpt lat="49.06655" lon="0.75584">
        <ele>151.06</ele>
        <time>2020-10-24T13:05:32Z</time>
      </trkpt>
      <trkpt lat="49.0667" lon="0.75556">
        <ele>152.03</ele>
        <time>2020-10-24T13:05:46Z</time>
      </trkpt>
      <trkpt lat="49.06685" lon="0.75535">
        <ele>153.47</ele>
        <time>2020-10-24T13:05:59Z</time>
      </trkpt>
      <trkpt lat="49.06689" lon="0.75535">
        <ele>153.47</ele>
        <time>2020-10-24T13:06:05Z</time>
      </trkpt>
      <trkpt lat="49.06689" lon="0.75537">
        <ele>153.47</ele>
        <time>2020-10-24T13:06:06Z</time>
      </trkpt>
      <trkpt lat="49.06692" lon="0.75544">
        <ele>152.03</ele>
        <time>2020-10-24T13:06:10Z</time>
      </trkpt>
      <trkpt lat="49.06696" lon="0.75551">
        <ele>149.62</ele>
        <time>2020-10-24T13:06:19Z</time>
      </trkpt>
      <trkpt lat="49.06698" lon="0.75551">
        <ele>149.14</ele>
        <time>2020-10-24T13:06:22Z</time>
      </trkpt>
      <trkpt lat="49.06703" lon="0.75552">
        <ele>148.66</ele>
        <time>2020-10-24T13:06:26Z</time>
      </trkpt>
      <trkpt lat="49.06715" lon="0.7555">
        <ele>146.74</ele>
        <time>2020-10-24T13:06:34Z</time>
      </trkpt>
      <trkpt lat="49.06721" lon="0.75546">
        <ele>145.78</ele>
        <time>2020-10-24T13:06:49Z</time>
      </trkpt>
      <trkpt lat="49.06736" lon="0.7554">
        <ele>142.89</ele>
        <time>2020-10-24T13:07:00Z</time>
      </trkpt>
      <trkpt lat="49.06751" lon="0.75528">
        <ele>139.53</ele>
        <time>2020-10-24T13:07:10Z</time>
      </trkpt>
      <trkpt lat="49.06756" lon="0.75525">
        <ele>139.05</ele>
        <time>2020-10-24T13:07:13Z</time>
      </trkpt>
      <trkpt lat="49.0677" lon="0.75517">
        <ele>137.13</ele>
        <time>2020-10-24T13:07:21Z</time>
      </trkpt>
      <trkpt lat="49.06787" lon="0.75507">
        <ele>135.68</ele>
        <time>2020-10-24T13:07:33Z</time>
      </trkpt>
      <trkpt lat="49.06797" lon="0.75506">
        <ele>134.72</ele>
        <time>2020-10-24T13:07:46Z</time>
      </trkpt>
      <trkpt lat="49.06812" lon="0.75503">
        <ele>132.8</ele>
        <time>2020-10-24T13:07:58Z</time>
      </trkpt>
      <trkpt lat="49.06825" lon="0.75506">
        <ele>131.36</ele>
        <time>2020-10-24T13:08:09Z</time>
      </trkpt>
      <trkpt lat="49.0684" lon="0.75497">
        <ele>131.36</ele>
        <time>2020-10-24T13:08:23Z</time>
      </trkpt>
      <trkpt lat="49.06862" lon="0.75491">
        <ele>130.88</ele>
        <time>2020-10-24T13:08:36Z</time>
      </trkpt>
      <trkpt lat="49.06883" lon="0.75482">
        <ele>129.92</ele>
        <time>2020-10-24T13:08:49Z</time>
      </trkpt>
      <trkpt lat="49.06909" lon="0.75464">
        <ele>128.95</ele>
        <time>2020-10-24T13:09:02Z</time>
      </trkpt>
      <trkpt lat="49.06942" lon="0.75462">
        <ele>126.55</ele>
        <time>2020-10-24T13:09:13Z</time>
      </trkpt>
      <trkpt lat="49.06947" lon="0.75462">
        <ele>126.55</ele>
        <time>2020-10-24T13:09:15Z</time>
      </trkpt>
      <trkpt lat="49.06952" lon="0.75461">
        <ele>126.07</ele>
        <time>2020-10-24T13:09:18Z</time>
      </trkpt>
      <trkpt lat="49.06954" lon="0.75461">
        <ele>126.07</ele>
        <time>2020-10-24T13:09:19Z</time>
      </trkpt>
      <trkpt lat="49.06956" lon="0.75461">
        <ele>126.07</ele>
        <time>2020-10-24T13:09:20Z</time>
      </trkpt>
      <trkpt lat="49.06958" lon="0.75461">
        <ele>126.07</ele>
        <time>2020-10-24T13:09:21Z</time>
      </trkpt>
      <trkpt lat="49.0696" lon="0.75462">
        <ele>126.07</ele>
        <time>2020-10-24T13:09:22Z</time>
      </trkpt>
      <trkpt lat="49.06963" lon="0.75462">
        <ele>126.07</ele>
        <time>2020-10-24T13:09:23Z</time>
      </trkpt>
      <trkpt lat="49.0697" lon="0.75459">
        <ele>126.07</ele>
        <time>2020-10-24T13:09:35Z</time>
      </trkpt>
      <trkpt lat="49.06973" lon="0.75459">
        <ele>125.59</ele>
        <time>2020-10-24T13:09:41Z</time>
      </trkpt>
      <trkpt lat="49.06974" lon="0.7546">
        <ele>125.59</ele>
        <time>2020-10-24T13:09:42Z</time>
      </trkpt>
      <trkpt lat="49.06996" lon="0.75464">
        <ele>125.59</ele>
        <time>2020-10-24T13:09:56Z</time>
      </trkpt>
      <trkpt lat="49.0701" lon="0.75464">
        <ele>125.59</ele>
        <time>2020-10-24T13:10:08Z</time>
      </trkpt>
      <trkpt lat="49.07023" lon="0.75465">
        <ele>125.59</ele>
        <time>2020-10-24T13:10:16Z</time>
      </trkpt>
      <trkpt lat="49.07025" lon="0.75466">
        <ele>125.59</ele>
        <time>2020-10-24T13:10:17Z</time>
      </trkpt>
      <trkpt lat="49.07026" lon="0.75466">
        <ele>125.59</ele>
        <time>2020-10-24T13:10:18Z</time>
      </trkpt>
      <trkpt lat="49.07036" lon="0.75466">
        <ele>125.59</ele>
        <time>2020-10-24T13:10:32Z</time>
      </trkpt>
      <trkpt lat="49.07048" lon="0.75472">
        <ele>125.59</ele>
        <time>2020-10-24T13:10:43Z</time>
      </trkpt>
      <trkpt lat="49.07049" lon="0.75485">
        <ele>124.15</ele>
        <time>2020-10-24T13:10:55Z</time>
      </trkpt>
      <trkpt lat="49.07044" lon="0.75499">
        <ele>121.26</ele>
        <time>2020-10-24T13:11:06Z</time>
      </trkpt>
      <trkpt lat="49.07043" lon="0.75508">
        <ele>121.26</ele>
        <time>2020-10-24T13:11:18Z</time>
      </trkpt>
      <trkpt lat="49.07042" lon="0.75505">
        <ele>121.26</ele>
        <time>2020-10-24T13:11:36Z</time>
      </trkpt>
      <trkpt lat="49.07044" lon="0.75498">
        <ele>121.26</ele>
        <time>2020-10-24T13:11:41Z</time>
      </trkpt>
      <trkpt lat="49.0705" lon="0.75485">
        <ele>124.63</ele>
        <time>2020-10-24T13:11:55Z</time>
      </trkpt>
      <trkpt lat="49.07046" lon="0.75479">
        <ele>125.59</ele>
        <time>2020-10-24T13:12:07Z</time>
      </trkpt>
      <trkpt lat="49.07026" lon="0.75471">
        <ele>125.59</ele>
        <time>2020-10-24T13:12:22Z</time>
      </trkpt>
      <trkpt lat="49.07019" lon="0.75468">
        <ele>125.59</ele>
        <time>2020-10-24T13:12:28Z</time>
      </trkpt>
      <trkpt lat="49.07006" lon="0.75465">
        <ele>125.59</ele>
        <time>2020-10-24T13:12:42Z</time>
      </trkpt>
      <trkpt lat="49.06991" lon="0.7546">
        <ele>126.55</ele>
        <time>2020-10-24T13:12:54Z</time>
      </trkpt>
      <trkpt lat="49.06971" lon="0.7546">
        <ele>127.51</ele>
        <time>2020-10-24T13:13:07Z</time>
      </trkpt>
      <trkpt lat="49.06959" lon="0.75461">
        <ele>127.03</ele>
        <time>2020-10-24T13:13:21Z</time>
      </trkpt>
      <trkpt lat="49.0695" lon="0.75461">
        <ele>127.03</ele>
        <time>2020-10-24T13:13:29Z</time>
      </trkpt>
      <trkpt lat="49.06934" lon="0.75458">
        <ele>128.47</ele>
        <time>2020-10-24T13:13:44Z</time>
      </trkpt>
      <trkpt lat="49.06928" lon="0.75457">
        <ele>129.43</ele>
        <time>2020-10-24T13:13:49Z</time>
      </trkpt>
      <trkpt lat="49.06909" lon="0.75463">
        <ele>130.4</ele>
        <time>2020-10-24T13:14:04Z</time>
      </trkpt>
      <trkpt lat="49.06891" lon="0.75469">
        <ele>131.36</ele>
        <time>2020-10-24T13:14:17Z</time>
      </trkpt>
      <trkpt lat="49.06873" lon="0.75479">
        <ele>131.84</ele>
        <time>2020-10-24T13:14:33Z</time>
      </trkpt>
      <trkpt lat="49.06855" lon="0.75487">
        <ele>132.8</ele>
        <time>2020-10-24T13:14:47Z</time>
      </trkpt>
      <trkpt lat="49.06839" lon="0.75496">
        <ele>132.8</ele>
        <time>2020-10-24T13:15:02Z</time>
      </trkpt>
      <trkpt lat="49.06838" lon="0.75496">
        <ele>132.8</ele>
        <time>2020-10-24T13:15:06Z</time>
      </trkpt>
      <trkpt lat="49.06828" lon="0.75499">
        <ele>133.76</ele>
        <time>2020-10-24T13:15:15Z</time>
      </trkpt>
      <trkpt lat="49.0682" lon="0.75518">
        <ele>132.32</ele>
        <time>2020-10-24T13:15:26Z</time>
      </trkpt>
      <trkpt lat="49.06819" lon="0.7552">
        <ele>132.32</ele>
        <time>2020-10-24T13:15:27Z</time>
      </trkpt>
      <trkpt lat="49.0681" lon="0.75527">
        <ele>131.36</ele>
        <time>2020-10-24T13:15:42Z</time>
      </trkpt>
      <trkpt lat="49.06807" lon="0.75528">
        <ele>130.88</ele>
        <time>2020-10-24T13:15:56Z</time>
      </trkpt>
      <trkpt lat="49.06805" lon="0.75529">
        <ele>130.88</ele>
        <time>2020-10-24T13:16:13Z</time>
      </trkpt>
      <trkpt lat="49.06803" lon="0.75533">
        <ele>130.4</ele>
        <time>2020-10-24T13:16:34Z</time>
      </trkpt>
      <trkpt lat="49.06808" lon="0.75537">
        <ele>129.92</ele>
        <time>2020-10-24T13:16:56Z</time>
      </trkpt>
      <trkpt lat="49.06809" lon="0.75538">
        <ele>129.92</ele>
        <time>2020-10-24T13:16:58Z</time>
      </trkpt>
      <trkpt lat="49.0681" lon="0.7556">
        <ele>126.55</ele>
        <time>2020-10-24T13:17:08Z</time>
      </trkpt>
      <trkpt lat="49.0681" lon="0.75564">
        <ele>126.07</ele>
        <time>2020-10-24T13:17:10Z</time>
      </trkpt>
      <trkpt lat="49.06812" lon="0.75592">
        <ele>124.15</ele>
        <time>2020-10-24T13:17:25Z</time>
      </trkpt>
      <trkpt lat="49.06812" lon="0.75594">
        <ele>124.15</ele>
        <time>2020-10-24T13:17:27Z</time>
      </trkpt>
      <trkpt lat="49.06815" lon="0.75599">
        <ele>122.71</ele>
        <time>2020-10-24T13:17:29Z</time>
      </trkpt>
      <trkpt lat="49.06816" lon="0.75602">
        <ele>122.71</ele>
        <time>2020-10-24T13:17:30Z</time>
      </trkpt>
      <trkpt lat="49.06817" lon="0.75605">
        <ele>122.71</ele>
        <time>2020-10-24T13:17:31Z</time>
      </trkpt>
      <trkpt lat="49.06819" lon="0.75607">
        <ele>122.22</ele>
        <time>2020-10-24T13:17:32Z</time>
      </trkpt>
      <trkpt lat="49.06834" lon="0.7565">
        <ele>118.86</ele>
        <time>2020-10-24T13:17:41Z</time>
      </trkpt>
      <trkpt lat="49.06836" lon="0.75659">
        <ele>117.9</ele>
        <time>2020-10-24T13:17:42Z</time>
      </trkpt>
      <trkpt lat="49.06838" lon="0.75668">
        <ele>116.94</ele>
        <time>2020-10-24T13:17:43Z</time>
      </trkpt>
      <trkpt lat="49.0684" lon="0.75675">
        <ele>116.94</ele>
        <time>2020-10-24T13:17:44Z</time>
      </trkpt>
      <trkpt lat="49.06842" lon="0.75682">
        <ele>116.46</ele>
        <time>2020-10-24T13:17:45Z</time>
      </trkpt>
      <trkpt lat="49.06844" lon="0.75689">
        <ele>115.98</ele>
        <time>2020-10-24T13:17:46Z</time>
      </trkpt>
      <trkpt lat="49.06845" lon="0.75721">
        <ele>114.05</ele>
        <time>2020-10-24T13:17:52Z</time>
      </trkpt>
      <trkpt lat="49.06845" lon="0.75736">
        <ele>113.57</ele>
        <time>2020-10-24T13:17:54Z</time>
      </trkpt>
      <trkpt lat="49.06845" lon="0.75754">
        <ele>112.13</ele>
        <time>2020-10-24T13:17:56Z</time>
      </trkpt>
      <trkpt lat="49.06846" lon="0.75763">
        <ele>111.65</ele>
        <time>2020-10-24T13:17:57Z</time>
      </trkpt>
      <trkpt lat="49.06846" lon="0.75773">
        <ele>111.17</ele>
        <time>2020-10-24T13:17:58Z</time>
      </trkpt>
      <trkpt lat="49.06846" lon="0.75796">
        <ele>109.73</ele>
        <time>2020-10-24T13:18:00Z</time>
      </trkpt>
      <trkpt lat="49.06851" lon="0.75855">
        <ele>106.36</ele>
        <time>2020-10-24T13:18:05Z</time>
      </trkpt>
      <trkpt lat="49.06853" lon="0.75875">
        <ele>103</ele>
        <time>2020-10-24T13:18:07Z</time>
      </trkpt>
      <trkpt lat="49.06857" lon="0.75914">
        <ele>101.08</ele>
        <time>2020-10-24T13:18:11Z</time>
      </trkpt>
      <trkpt lat="49.0686" lon="0.75922">
        <ele>101.08</ele>
        <time>2020-10-24T13:18:12Z</time>
      </trkpt>
      <trkpt lat="49.06865" lon="0.75928">
        <ele>100.11</ele>
        <time>2020-10-24T13:18:13Z</time>
      </trkpt>
      <trkpt lat="49.06872" lon="0.75931">
        <ele>99.15</ele>
        <time>2020-10-24T13:18:14Z</time>
      </trkpt>
      <trkpt lat="49.0688" lon="0.75931">
        <ele>98.67</ele>
        <time>2020-10-24T13:18:15Z</time>
      </trkpt>
      <trkpt lat="49.06887" lon="0.75928">
        <ele>98.19</ele>
        <time>2020-10-24T13:18:16Z</time>
      </trkpt>
      <trkpt lat="49.06894" lon="0.75926">
        <ele>98.19</ele>
        <time>2020-10-24T13:18:17Z</time>
      </trkpt>
      <trkpt lat="49.0693" lon="0.75921">
        <ele>98.19</ele>
        <time>2020-10-24T13:18:23Z</time>
      </trkpt>
      <trkpt lat="49.06936" lon="0.75922">
        <ele>98.19</ele>
        <time>2020-10-24T13:18:24Z</time>
      </trkpt>
      <trkpt lat="49.06977" lon="0.75953">
        <ele>98.19</ele>
        <time>2020-10-24T13:18:34Z</time>
      </trkpt>
      <trkpt lat="49.06978" lon="0.75957">
        <ele>98.19</ele>
        <time>2020-10-24T13:18:35Z</time>
      </trkpt>
      <trkpt lat="49.06978" lon="0.75962">
        <ele>98.19</ele>
        <time>2020-10-24T13:18:36Z</time>
      </trkpt>
      <trkpt lat="49.06978" lon="0.75967">
        <ele>98.19</ele>
        <time>2020-10-24T13:18:37Z</time>
      </trkpt>
      <trkpt lat="49.06977" lon="0.75972">
        <ele>98.19</ele>
        <time>2020-10-24T13:18:38Z</time>
      </trkpt>
      <trkpt lat="49.06977" lon="0.75978">
        <ele>98.19</ele>
        <time>2020-10-24T13:18:39Z</time>
      </trkpt>
      <trkpt lat="49.0698" lon="0.76077">
        <ele>98.19</ele>
        <time>2020-10-24T13:18:54Z</time>
      </trkpt>
      <trkpt lat="49.06985" lon="0.76124">
        <ele>98.19</ele>
        <time>2020-10-24T13:19:01Z</time>
      </trkpt>
      <trkpt lat="49.06984" lon="0.76131">
        <ele>98.19</ele>
        <time>2020-10-24T13:19:02Z</time>
      </trkpt>
      <trkpt lat="49.06983" lon="0.76137">
        <ele>98.19</ele>
        <time>2020-10-24T13:19:03Z</time>
      </trkpt>
      <trkpt lat="49.06979" lon="0.76149">
        <ele>98.19</ele>
        <time>2020-10-24T13:19:05Z</time>
      </trkpt>
      <trkpt lat="49.06976" lon="0.76155">
        <ele>98.19</ele>
        <time>2020-10-24T13:19:06Z</time>
      </trkpt>
      <trkpt lat="49.06974" lon="0.7616">
        <ele>98.19</ele>
        <time>2020-10-24T13:19:07Z</time>
      </trkpt>
      <trkpt lat="49.06973" lon="0.76166">
        <ele>98.19</ele>
        <time>2020-10-24T13:19:08Z</time>
      </trkpt>
      <trkpt lat="49.06973" lon="0.76172">
        <ele>98.19</ele>
        <time>2020-10-24T13:19:09Z</time>
      </trkpt>
      <trkpt lat="49.06973" lon="0.76178">
        <ele>98.19</ele>
        <time>2020-10-24T13:19:10Z</time>
      </trkpt>
      <trkpt lat="49.06974" lon="0.76195">
        <ele>99.63</ele>
        <time>2020-10-24T13:19:13Z</time>
      </trkpt>
      <trkpt lat="49.06983" lon="0.76245">
        <ele>100.11</ele>
        <time>2020-10-24T13:19:27Z</time>
      </trkpt>
      <trkpt lat="49.07023" lon="0.76272">
        <ele>100.11</ele>
        <time>2020-10-24T13:19:38Z</time>
      </trkpt>
      <trkpt lat="49.07097" lon="0.76341">
        <ele>99.15</ele>
        <time>2020-10-24T13:19:53Z</time>
      </trkpt>
      <trkpt lat="49.07148" lon="0.76404">
        <ele>98.67</ele>
        <time>2020-10-24T13:20:05Z</time>
      </trkpt>
      <trkpt lat="49.07153" lon="0.76406">
        <ele>98.67</ele>
        <time>2020-10-24T13:20:06Z</time>
      </trkpt>
      <trkpt lat="49.07158" lon="0.76405">
        <ele>98.67</ele>
        <time>2020-10-24T13:20:07Z</time>
      </trkpt>
      <trkpt lat="49.0716" lon="0.76403">
        <ele>98.67</ele>
        <time>2020-10-24T13:20:08Z</time>
      </trkpt>
      <trkpt lat="49.07164" lon="0.764">
        <ele>98.67</ele>
        <time>2020-10-24T13:20:09Z</time>
      </trkpt>
      <trkpt lat="49.07168" lon="0.76397">
        <ele>98.67</ele>
        <time>2020-10-24T13:20:10Z</time>
      </trkpt>
      <trkpt lat="49.07172" lon="0.76393">
        <ele>98.67</ele>
        <time>2020-10-24T13:20:11Z</time>
      </trkpt>
      <trkpt lat="49.07195" lon="0.76366">
        <ele>97.71</ele>
        <time>2020-10-24T13:20:17Z</time>
      </trkpt>
      <trkpt lat="49.072" lon="0.76362">
        <ele>97.71</ele>
        <time>2020-10-24T13:20:18Z</time>
      </trkpt>
      <trkpt lat="49.07204" lon="0.76358">
        <ele>97.71</ele>
        <time>2020-10-24T13:20:19Z</time>
      </trkpt>
      <trkpt lat="49.07283" lon="0.76307">
        <ele>97.71</ele>
        <time>2020-10-24T13:20:35Z</time>
      </trkpt>
      <trkpt lat="49.07303" lon="0.76299">
        <ele>97.71</ele>
        <time>2020-10-24T13:20:39Z</time>
      </trkpt>
      <trkpt lat="49.07309" lon="0.76299">
        <ele>97.71</ele>
        <time>2020-10-24T13:20:40Z</time>
      </trkpt>
      <trkpt lat="49.07314" lon="0.763">
        <ele>97.71</ele>
        <time>2020-10-24T13:20:41Z</time>
      </trkpt>
      <trkpt lat="49.07319" lon="0.76302">
        <ele>97.71</ele>
        <time>2020-10-24T13:20:42Z</time>
      </trkpt>
      <trkpt lat="49.07324" lon="0.76304">
        <ele>97.71</ele>
        <time>2020-10-24T13:20:43Z</time>
      </trkpt>
      <trkpt lat="49.07345" lon="0.76313">
        <ele>97.71</ele>
        <time>2020-10-24T13:20:47Z</time>
      </trkpt>
      <trkpt lat="49.07349" lon="0.76312">
        <ele>97.71</ele>
        <time>2020-10-24T13:20:48Z</time>
      </trkpt>
      <trkpt lat="49.07354" lon="0.76311">
        <ele>97.71</ele>
        <time>2020-10-24T13:20:49Z</time>
      </trkpt>
      <trkpt lat="49.07358" lon="0.76307">
        <ele>97.71</ele>
        <time>2020-10-24T13:20:50Z</time>
      </trkpt>
      <trkpt lat="49.07362" lon="0.76301">
        <ele>97.71</ele>
        <time>2020-10-24T13:20:51Z</time>
      </trkpt>
      <trkpt lat="49.07365" lon="0.76295">
        <ele>97.71</ele>
        <time>2020-10-24T13:20:52Z</time>
      </trkpt>
      <trkpt lat="49.07368" lon="0.76288">
        <ele>97.71</ele>
        <time>2020-10-24T13:20:53Z</time>
      </trkpt>
      <trkpt lat="49.0737" lon="0.76281">
        <ele>97.71</ele>
        <time>2020-10-24T13:20:54Z</time>
      </trkpt>
      <trkpt lat="49.07371" lon="0.76274">
        <ele>97.71</ele>
        <time>2020-10-24T13:20:55Z</time>
      </trkpt>
      <trkpt lat="49.07371" lon="0.76267">
        <ele>97.71</ele>
        <time>2020-10-24T13:20:56Z</time>
      </trkpt>
      <trkpt lat="49.07372" lon="0.76259">
        <ele>97.71</ele>
        <time>2020-10-24T13:20:57Z</time>
      </trkpt>
      <trkpt lat="49.07372" lon="0.76251">
        <ele>97.71</ele>
        <time>2020-10-24T13:20:58Z</time>
      </trkpt>
      <trkpt lat="49.07374" lon="0.76223">
        <ele>96.75</ele>
        <time>2020-10-24T13:21:02Z</time>
      </trkpt>
      <trkpt lat="49.07375" lon="0.76216">
        <ele>96.75</ele>
        <time>2020-10-24T13:21:03Z</time>
      </trkpt>
      <trkpt lat="49.07377" lon="0.76209">
        <ele>96.75</ele>
        <time>2020-10-24T13:21:04Z</time>
      </trkpt>
      <trkpt lat="49.0738" lon="0.76204">
        <ele>96.75</ele>
        <time>2020-10-24T13:21:05Z</time>
      </trkpt>
      <trkpt lat="49.07384" lon="0.76199">
        <ele>96.75</ele>
        <time>2020-10-24T13:21:06Z</time>
      </trkpt>
      <trkpt lat="49.07388" lon="0.76195">
        <ele>96.75</ele>
        <time>2020-10-24T13:21:07Z</time>
      </trkpt>
      <trkpt lat="49.07392" lon="0.7619">
        <ele>96.75</ele>
        <time>2020-10-24T13:21:08Z</time>
      </trkpt>
      <trkpt lat="49.07396" lon="0.76186">
        <ele>96.75</ele>
        <time>2020-10-24T13:21:09Z</time>
      </trkpt>
      <trkpt lat="49.07399" lon="0.76181">
        <ele>96.75</ele>
        <time>2020-10-24T13:21:10Z</time>
      </trkpt>
      <trkpt lat="49.07405" lon="0.76171">
        <ele>96.75</ele>
        <time>2020-10-24T13:21:12Z</time>
      </trkpt>
      <trkpt lat="49.07408" lon="0.76166">
        <ele>96.75</ele>
        <time>2020-10-24T13:21:13Z</time>
      </trkpt>
      <trkpt lat="49.0741" lon="0.76161">
        <ele>96.75</ele>
        <time>2020-10-24T13:21:14Z</time>
      </trkpt>
      <trkpt lat="49.07411" lon="0.76156">
        <ele>96.75</ele>
        <time>2020-10-24T13:21:15Z</time>
      </trkpt>
      <trkpt lat="49.07413" lon="0.76152">
        <ele>96.75</ele>
        <time>2020-10-24T13:21:16Z</time>
      </trkpt>
      <trkpt lat="49.0742" lon="0.76124">
        <ele>98.19</ele>
        <time>2020-10-24T13:21:27Z</time>
      </trkpt>
      <trkpt lat="49.07422" lon="0.76123">
        <ele>98.67</ele>
        <time>2020-10-24T13:21:29Z</time>
      </trkpt>
      <trkpt lat="49.07424" lon="0.76123">
        <ele>98.67</ele>
        <time>2020-10-24T13:21:30Z</time>
      </trkpt>
      <trkpt lat="49.07425" lon="0.76124">
        <ele>98.67</ele>
        <time>2020-10-24T13:21:31Z</time>
      </trkpt>
      <trkpt lat="49.07427" lon="0.76125">
        <ele>99.15</ele>
        <time>2020-10-24T13:21:32Z</time>
      </trkpt>
      <trkpt lat="49.07428" lon="0.76126">
        <ele>97.23</ele>
        <time>2020-10-24T13:21:33Z</time>
      </trkpt>
      <trkpt lat="49.07429" lon="0.76126">
        <ele>97.23</ele>
        <time>2020-10-24T13:21:34Z</time>
      </trkpt>
      <trkpt lat="49.0743" lon="0.76127">
        <ele>101.56</ele>
        <time>2020-10-24T13:21:35Z</time>
      </trkpt>
      <trkpt lat="49.07431" lon="0.76128">
        <ele>99.63</ele>
        <time>2020-10-24T13:21:36Z</time>
      </trkpt>
      <trkpt lat="49.07471" lon="0.76164">
        <ele>98.19</ele>
        <time>2020-10-24T13:21:50Z</time>
      </trkpt>
      <trkpt lat="49.07519" lon="0.76229">
        <ele>97.71</ele>
        <time>2020-10-24T13:22:02Z</time>
      </trkpt>
      <trkpt lat="49.0759" lon="0.76307">
        <ele>100.11</ele>
        <time>2020-10-24T13:22:19Z</time>
      </trkpt>
      <trkpt lat="49.07616" lon="0.76336">
        <ele>102.04</ele>
        <time>2020-10-24T13:22:26Z</time>
      </trkpt>
      <trkpt lat="49.0762" lon="0.7634">
        <ele>102.04</ele>
        <time>2020-10-24T13:22:27Z</time>
      </trkpt>
      <trkpt lat="49.07684" lon="0.76404">
        <ele>103.48</ele>
        <time>2020-10-24T13:22:43Z</time>
      </trkpt>
      <trkpt lat="49.07704" lon="0.76428">
        <ele>101.56</ele>
        <time>2020-10-24T13:22:47Z</time>
      </trkpt>
      <trkpt lat="49.07773" lon="0.76498">
        <ele>100.11</ele>
        <time>2020-10-24T13:22:59Z</time>
      </trkpt>
      <trkpt lat="49.07798" lon="0.76529">
        <ele>100.11</ele>
        <time>2020-10-24T13:23:04Z</time>
      </trkpt>
      <trkpt lat="49.07827" lon="0.76559">
        <ele>99.15</ele>
        <time>2020-10-24T13:23:10Z</time>
      </trkpt>
      <trkpt lat="49.07842" lon="0.7657">
        <ele>99.15</ele>
        <time>2020-10-24T13:23:13Z</time>
      </trkpt>
      <trkpt lat="49.07848" lon="0.76571">
        <ele>99.15</ele>
        <time>2020-10-24T13:23:14Z</time>
      </trkpt>
      <trkpt lat="49.07855" lon="0.76568">
        <ele>98.67</ele>
        <time>2020-10-24T13:23:15Z</time>
      </trkpt>
      <trkpt lat="49.07861" lon="0.76564">
        <ele>98.67</ele>
        <time>2020-10-24T13:23:16Z</time>
      </trkpt>
      <trkpt lat="49.0787" lon="0.76553">
        <ele>98.67</ele>
        <time>2020-10-24T13:23:18Z</time>
      </trkpt>
      <trkpt lat="49.07891" lon="0.7652">
        <ele>100.11</ele>
        <time>2020-10-24T13:23:22Z</time>
      </trkpt>
      <trkpt lat="49.07969" lon="0.76393">
        <ele>100.6</ele>
        <time>2020-10-24T13:23:37Z</time>
      </trkpt>
      <trkpt lat="49.07972" lon="0.76384">
        <ele>100.6</ele>
        <time>2020-10-24T13:23:38Z</time>
      </trkpt>
      <trkpt lat="49.07977" lon="0.76365">
        <ele>100.6</ele>
        <time>2020-10-24T13:23:40Z</time>
      </trkpt>
      <trkpt lat="49.07978" lon="0.76356">
        <ele>101.08</ele>
        <time>2020-10-24T13:23:41Z</time>
      </trkpt>
      <trkpt lat="49.07981" lon="0.76304">
        <ele>101.56</ele>
        <time>2020-10-24T13:23:48Z</time>
      </trkpt>
      <trkpt lat="49.07981" lon="0.76238">
        <ele>103</ele>
        <time>2020-10-24T13:24:02Z</time>
      </trkpt>
      <trkpt lat="49.07982" lon="0.76195">
        <ele>104.44</ele>
        <time>2020-10-24T13:24:17Z</time>
      </trkpt>
      <trkpt lat="49.07982" lon="0.76195">
        <ele>105.4</ele>
        <time>2020-10-24T13:24:20Z</time>
      </trkpt>
      <trkpt lat="49.07982" lon="0.76195">
        <ele>103.96</ele>
        <time>2020-10-24T13:24:22Z</time>
      </trkpt>
    </trkseg>
  </trk>
</gpx>